<?xml version='1.0' encoding='UTF-8'?><gpx version="1.1" creator="JPX - https://github.com/jenetics/jpx" xmlns="http://www.topografix.com/GPX/1/1"><trk><trkseg><trkpt lat="49.06068849621024" lon="2.5048583466140615"><ele>118.0</ele><time>2026-03-30T16:36:00Z</time></trkpt><trkpt lat="49.060640773789814" lon="2.5046719218046376"><ele>118.00000000000001</ele><time>2026-03-30T16:36:02Z</time></trkpt><trkpt lat="49.060603191129815" lon="2.504592523319399"><ele>118.00000000000001</ele><time>2026-03-30T16:36:03Z</time></trkpt><trkpt lat="49.06052361065959" lon="2.5044385991736813"><ele>118.0</ele><time>2026-03-30T16:36:05Z</time></trkpt><trkpt lat="49.060471995130406" lon="2.5043804950830815"><ele>118.0</ele><time>2026-03-30T16:36:06Z</time></trkpt><trkpt lat="49.060385324903756" lon="2.5042571356157093"><ele>117.80000000000001</ele><time>2026-03-30T16:36:08Z</time></trkpt><trkpt lat="49.06031838917785" lon="2.504106769102287"><ele>117.60000000000001</ele><time>2026-03-30T16:36:10Z</time></trkpt><trkpt lat="49.06023092226015" lon="2.5039887264545073"><ele>117.39999999999999</ele><time>2026-03-30T16:36:12Z</time></trkpt><trkpt lat="49.06011966844265" lon="2.503929399577927"><ele>117.19999999999999</ele><time>2026-03-30T16:36:14Z</time></trkpt><trkpt lat="49.0600588849792" lon="2.503898330281102"><ele>117.0</ele><time>2026-03-30T16:36:15Z</time></trkpt><trkpt lat="49.0599409040443" lon="2.5038921923628865"><ele>116.6</ele><time>2026-03-30T16:36:17Z</time></trkpt><trkpt lat="49.05981861473245" lon="2.5039045418841104"><ele>116.19999999999999</ele><time>2026-03-30T16:36:19Z</time></trkpt><trkpt lat="49.059754488224556" lon="2.503894051712128"><ele>115.8</ele><time>2026-03-30T16:36:20Z</time></trkpt><trkpt lat="49.05964146269216" lon="2.503839562058595"><ele>115.4</ele><time>2026-03-30T16:36:22Z</time></trkpt><trkpt lat="49.059600226967596" lon="2.5036729690568054"><ele>115.0</ele><time>2026-03-30T16:36:24Z</time></trkpt><trkpt lat="49.059598362218374" lon="2.5035019416747355"><ele>115.0</ele><time>2026-03-30T16:36:26Z</time></trkpt><trkpt lat="49.05959987426392" lon="2.5033610721217245"><ele>115.0</ele><time>2026-03-30T16:36:28Z</time></trkpt><trkpt lat="49.059580131484836" lon="2.5032512222868957"><ele>115.0</ele><time>2026-03-30T16:36:35Z</time></trkpt><trkpt lat="49.05948422777303" lon="2.503190334324444"><ele>115.0</ele><time>2026-03-30T16:36:37Z</time></trkpt><trkpt lat="49.05937060713634" lon="2.503116928479856"><ele>115.0</ele><time>2026-03-30T16:36:39Z</time></trkpt><trkpt lat="49.059313444595" lon="2.50307074678271"><ele>115.00000000000001</ele><time>2026-03-30T16:36:40Z</time></trkpt><trkpt lat="49.05925268992831" lon="2.503013682147438"><ele>115.0</ele><time>2026-03-30T16:36:41Z</time></trkpt><trkpt lat="49.05919233157636" lon="2.5029477183957827"><ele>115.0</ele><time>2026-03-30T16:36:42Z</time></trkpt><trkpt lat="49.05912440640773" lon="2.5028740155630658"><ele>115.0</ele><time>2026-03-30T16:36:43Z</time></trkpt><trkpt lat="49.059054113442606" lon="2.502802449382833"><ele>115.00000000000001</ele><time>2026-03-30T16:36:44Z</time></trkpt><trkpt lat="49.05897306258091" lon="2.5027226810397374"><ele>115.0</ele><time>2026-03-30T16:36:44.999Z</time></trkpt><trkpt lat="49.05889638696138" lon="2.502646471023796"><ele>115.00000000000001</ele><time>2026-03-30T16:36:45.999Z</time></trkpt><trkpt lat="49.058823209590926" lon="2.502569310740287"><ele>115.0</ele><time>2026-03-30T16:36:46.999Z</time></trkpt><trkpt lat="49.058755247339484" lon="2.5024834070501734"><ele>115.0</ele><time>2026-03-30T16:36:47.999Z</time></trkpt><trkpt lat="49.058681103394704" lon="2.502405585430034"><ele>115.0</ele><time>2026-03-30T16:36:48.999Z</time></trkpt><trkpt lat="49.05860651027637" lon="2.502320199443043"><ele>115.00000000000001</ele><time>2026-03-30T16:36:49.999Z</time></trkpt><trkpt lat="49.05853439037193" lon="2.5022431715346403"><ele>115.0</ele><time>2026-03-30T16:36:50.999Z</time></trkpt><trkpt lat="49.058468209360505" lon="2.5021723855681097"><ele>115.0</ele><time>2026-03-30T16:36:51.999Z</time></trkpt><trkpt lat="49.05840698386722" lon="2.5021096268265497"><ele>115.0</ele><time>2026-03-30T16:36:52.999Z</time></trkpt><trkpt lat="49.05835063226367" lon="2.5020523560233494"><ele>115.0</ele><time>2026-03-30T16:36:53.999Z</time></trkpt><trkpt lat="49.05825707872403" lon="2.5019580253901927"><ele>115.0</ele><time>2026-03-30T16:36:55.999Z</time></trkpt><trkpt lat="49.05818010989987" lon="2.5018755077842862"><ele>115.0</ele><time>2026-03-30T16:36:57.999Z</time></trkpt><trkpt lat="49.05809620389951" lon="2.5017799809718984"><ele>114.8</ele><time>2026-03-30T16:36:59.999Z</time></trkpt><trkpt lat="49.05799438704201" lon="2.5016809481771247"><ele>114.6</ele><time>2026-03-30T16:37:01.999Z</time></trkpt><trkpt lat="49.057937615782095" lon="2.5016247975547867"><ele>114.4</ele><time>2026-03-30T16:37:02.999Z</time></trkpt><trkpt lat="49.05785086818506" lon="2.5015075363442447"><ele>114.2</ele><time>2026-03-30T16:37:04.999Z</time></trkpt><trkpt lat="49.05777953948253" lon="2.501403126575571"><ele>114.0</ele><time>2026-03-30T16:37:06.999Z</time></trkpt><trkpt lat="49.05773812874526" lon="2.501278946886976"><ele>114.0</ele><time>2026-03-30T16:37:08.999Z</time></trkpt><trkpt lat="49.057698639075895" lon="2.501105073208925"><ele>114.0</ele><time>2026-03-30T16:37:10.999Z</time></trkpt><trkpt lat="49.05767293362605" lon="2.5010155727966907"><ele>114.0</ele><time>2026-03-30T16:37:11.999Z</time></trkpt><trkpt lat="49.05765058766698" lon="2.500818343447179"><ele>114.0</ele><time>2026-03-30T16:37:13.999Z</time></trkpt><trkpt lat="49.05763021195977" lon="2.500712793425937"><ele>114.0</ele><time>2026-03-30T16:37:14.999Z</time></trkpt><trkpt lat="49.057595271547406" lon="2.500632208101081"><ele>114.0</ele><time>2026-03-30T16:37:15.999Z</time></trkpt><trkpt lat="49.05752898907402" lon="2.500591219330485"><ele>114.0</ele><time>2026-03-30T16:37:16.999Z</time></trkpt><trkpt lat="49.05745329328987" lon="2.500593734960689"><ele>114.0</ele><time>2026-03-30T16:37:17.999Z</time></trkpt><trkpt lat="49.05737685592291" lon="2.5006365536214332"><ele>114.0</ele><time>2026-03-30T16:37:18.999Z</time></trkpt><trkpt lat="49.05730451747114" lon="2.5006760965671115"><ele>114.0</ele><time>2026-03-30T16:37:19.999Z</time></trkpt><trkpt lat="49.05724077983159" lon="2.5006989829896535"><ele>114.0</ele><time>2026-03-30T16:37:20.999Z</time></trkpt><trkpt lat="49.05711773724157" lon="2.500728858698538"><ele>114.2</ele><time>2026-03-30T16:37:22.999Z</time></trkpt><trkpt lat="49.0570085579379" lon="2.500758973934752"><ele>114.4</ele><time>2026-03-30T16:37:24.999Z</time></trkpt><trkpt lat="49.05692331868313" lon="2.5007839879886524"><ele>114.6</ele><time>2026-03-30T16:37:26.999Z</time></trkpt><trkpt lat="49.056826648058816" lon="2.5008086418455906"><ele>114.8</ele><time>2026-03-30T16:37:28.999Z</time></trkpt><trkpt lat="49.05673257833768" lon="2.500841437812547"><ele>115.0</ele><time>2026-03-30T16:37:30.999Z</time></trkpt><trkpt lat="49.05663408708052" lon="2.5008677756779862"><ele>115.50000000000001</ele><time>2026-03-30T16:37:32.999Z</time></trkpt><trkpt lat="49.056557609342384" lon="2.5008920236267036"><ele>116.0</ele><time>2026-03-30T16:37:34.999Z</time></trkpt><trkpt lat="49.05648315311687" lon="2.5009095991263908"><ele>116.5</ele><time>2026-03-30T16:37:37.999Z</time></trkpt><trkpt lat="49.05641215714108" lon="2.5009132919264707"><ele>117.0</ele><time>2026-03-30T16:37:39.999Z</time></trkpt><trkpt lat="49.05630391888806" lon="2.500942685134244"><ele>117.50000000000001</ele><time>2026-03-30T16:37:41.999Z</time></trkpt><trkpt lat="49.056239682462234" lon="2.500960089097793"><ele>118.0</ele><time>2026-03-30T16:37:42.999Z</time></trkpt><trkpt lat="49.056108872531155" lon="2.5009954961896845"><ele>118.00000000000001</ele><time>2026-03-30T16:37:44.999Z</time></trkpt><trkpt lat="49.05603337713907" lon="2.501015928435296"><ele>118.0</ele><time>2026-03-30T16:37:45.999Z</time></trkpt><trkpt lat="49.055954865128" lon="2.501037177135543"><ele>118.0</ele><time>2026-03-30T16:37:46.999Z</time></trkpt><trkpt lat="49.05587094735489" lon="2.5010598893819296"><ele>118.0</ele><time>2026-03-30T16:37:47.999Z</time></trkpt><trkpt lat="49.0557840083314" lon="2.5010836435372643"><ele>118.00000000000001</ele><time>2026-03-30T16:37:48.999Z</time></trkpt><trkpt lat="49.05569978635288" lon="2.501130541617318"><ele>118.0</ele><time>2026-03-30T16:37:49.999Z</time></trkpt><trkpt lat="49.05560625682858" lon="2.501132103718396"><ele>118.33333333333334</ele><time>2026-03-30T16:37:50.999Z</time></trkpt><trkpt lat="49.05551764862069" lon="2.501181900517716"><ele>118.66666666666667</ele><time>2026-03-30T16:37:51.999Z</time></trkpt><trkpt lat="49.05543037368056" lon="2.50120780493266"><ele>119.0</ele><time>2026-03-30T16:37:52.999Z</time></trkpt><trkpt lat="49.05534130632049" lon="2.501207775209315"><ele>119.33333333333334</ele><time>2026-03-30T16:37:53.998Z</time></trkpt><trkpt lat="49.055255722567765" lon="2.5012284296097747"><ele>119.66666666666667</ele><time>2026-03-30T16:37:54.998Z</time></trkpt><trkpt lat="49.0551698515652" lon="2.5012489558327546"><ele>120.0</ele><time>2026-03-30T16:37:55.998Z</time></trkpt><trkpt lat="49.05507963258335" lon="2.5012705221919465"><ele>120.2</ele><time>2026-03-30T16:37:56.998Z</time></trkpt><trkpt lat="49.05498655593251" lon="2.5012953573623684"><ele>120.4</ele><time>2026-03-30T16:37:57.998Z</time></trkpt><trkpt lat="49.05490009224331" lon="2.5013204243118423"><ele>120.6</ele><time>2026-03-30T16:37:58.998Z</time></trkpt><trkpt lat="49.05481017226234" lon="2.501346510314922"><ele>120.8</ele><time>2026-03-30T16:37:59.998Z</time></trkpt><trkpt lat="49.05471957430602" lon="2.5013727204292207"><ele>121.0</ele><time>2026-03-30T16:38:00.998Z</time></trkpt><trkpt lat="49.054628657612405" lon="2.5013966944510604"><ele>120.4</ele><time>2026-03-30T16:38:01.998Z</time></trkpt><trkpt lat="49.05453750519878" lon="2.5014371083159688"><ele>119.8</ele><time>2026-03-30T16:38:02.998Z</time></trkpt><trkpt lat="49.0544441200552" lon="2.5014635794129907"><ele>119.20000000000002</ele><time>2026-03-30T16:38:04Z</time></trkpt><trkpt lat="49.054348217379356" lon="2.501487664643191"><ele>118.60000000000001</ele><time>2026-03-30T16:38:05Z</time></trkpt><trkpt lat="49.054253053240416" lon="2.501515900609423"><ele>118.0</ele><time>2026-03-30T16:38:06Z</time></trkpt><trkpt lat="49.05415642626017" lon="2.5015370059766955"><ele>117.0</ele><time>2026-03-30T16:38:07Z</time></trkpt><trkpt lat="49.05406910224145" lon="2.5015607358018594"><ele>116.00000000000001</ele><time>2026-03-30T16:38:08Z</time></trkpt><trkpt lat="49.053977581875685" lon="2.5015873829321933"><ele>115.00000000000001</ele><time>2026-03-30T16:38:09Z</time></trkpt><trkpt lat="49.05388815027856" lon="2.501610477662886"><ele>114.0</ele><time>2026-03-30T16:38:10Z</time></trkpt><trkpt lat="49.05379934504369" lon="2.5016345065767034"><ele>113.0</ele><time>2026-03-30T16:38:11Z</time></trkpt><trkpt lat="49.05370870433313" lon="2.501658303175232"><ele>112.99999999999999</ele><time>2026-03-30T16:38:12Z</time></trkpt><trkpt lat="49.05362015867033" lon="2.501686022431323"><ele>113.0</ele><time>2026-03-30T16:38:13Z</time></trkpt><trkpt lat="49.05353094754585" lon="2.5017150230701404"><ele>113.0</ele><time>2026-03-30T16:38:14Z</time></trkpt><trkpt lat="49.05344278578862" lon="2.5017428332697547"><ele>113.0</ele><time>2026-03-30T16:38:15Z</time></trkpt><trkpt lat="49.053353884369734" lon="2.5017684875905593"><ele>112.99999999999999</ele><time>2026-03-30T16:38:16Z</time></trkpt><trkpt lat="49.05327426292594" lon="2.501792959084331"><ele>113.0</ele><time>2026-03-30T16:38:17Z</time></trkpt><trkpt lat="49.053198295904686" lon="2.501790400136383"><ele>112.49999999999999</ele><time>2026-03-30T16:38:18Z</time></trkpt><trkpt lat="49.05313356646982" lon="2.5018153329641875"><ele>112.0</ele><time>2026-03-30T16:38:19Z</time></trkpt><trkpt lat="49.0530686119077" lon="2.5017825911603553"><ele>111.5</ele><time>2026-03-30T16:38:20Z</time></trkpt><trkpt lat="49.0530263455977" lon="2.501697289021227"><ele>111.0</ele><time>2026-03-30T16:38:21Z</time></trkpt><trkpt lat="49.05295187931629" lon="2.501576571375776"><ele>110.49999999999999</ele><time>2026-03-30T16:38:23Z</time></trkpt><trkpt lat="49.05285082415497" lon="2.5015927935826383"><ele>110.0</ele><time>2026-03-30T16:38:25Z</time></trkpt><trkpt lat="49.05280238791366" lon="2.501720550103545"><ele>109.99999999999999</ele><time>2026-03-30T16:38:27Z</time></trkpt><trkpt lat="49.05279690844303" lon="2.5018251286876323"><ele>110.0</ele><time>2026-03-30T16:38:30Z</time></trkpt><trkpt lat="49.05270530243115" lon="2.501897873001202"><ele>110.0</ele><time>2026-03-30T16:38:33Z</time></trkpt><trkpt lat="49.05264268439721" lon="2.5019302036759883"><ele>110.0</ele><time>2026-03-30T16:38:36Z</time></trkpt><trkpt lat="49.05254854939503" lon="2.5019664731333"><ele>109.99999999999999</ele><time>2026-03-30T16:38:39Z</time></trkpt><trkpt lat="49.05248161646656" lon="2.5019893609410437"><ele>110.0</ele><time>2026-03-30T16:38:41Z</time></trkpt><trkpt lat="49.052386319009884" lon="2.5020256329095028"><ele>109.16666666666666</ele><time>2026-03-30T16:38:50Z</time></trkpt><trkpt lat="49.05229111952286" lon="2.5020591311341462"><ele>108.33333333333333</ele><time>2026-03-30T16:38:52Z</time></trkpt><trkpt lat="49.0521923152444" lon="2.502082435940613"><ele>107.5</ele><time>2026-03-30T16:38:54Z</time></trkpt><trkpt lat="49.05210715488131" lon="2.502085314025938"><ele>106.66666666666666</ele><time>2026-03-30T16:38:56Z</time></trkpt><trkpt lat="49.05204414228706" lon="2.502121116427584"><ele>105.83333333333333</ele><time>2026-03-30T16:39:00Z</time></trkpt><trkpt lat="49.05197164193372" lon="2.502146024503641"><ele>105.0</ele><time>2026-03-30T16:39:11.999Z</time></trkpt><trkpt lat="49.051906048571354" lon="2.50214922942305"><ele>104.83333333333333</ele><time>2026-03-30T16:39:13.999Z</time></trkpt><trkpt lat="49.05183422245658" lon="2.502169109239775"><ele>104.66666666666666</ele><time>2026-03-30T16:39:15.999Z</time></trkpt><trkpt lat="49.05175348715459" lon="2.5021931469918854"><ele>104.5</ele><time>2026-03-30T16:39:17.999Z</time></trkpt><trkpt lat="49.0516750925604" lon="2.502212443686041"><ele>104.33333333333333</ele><time>2026-03-30T16:39:20.999Z</time></trkpt><trkpt lat="49.05159901132826" lon="2.5022426117402947"><ele>104.16666666666666</ele><time>2026-03-30T16:39:23.999Z</time></trkpt><trkpt lat="49.05151969320336" lon="2.502273977847758"><ele>104.0</ele><time>2026-03-30T16:39:25.999Z</time></trkpt><trkpt lat="49.05144864128966" lon="2.5023078499101397"><ele>103.4</ele><time>2026-03-30T16:39:27.999Z</time></trkpt><trkpt lat="49.05135527643955" lon="2.5023230038782254"><ele>102.80000000000001</ele><time>2026-03-30T16:39:45.999Z</time></trkpt><trkpt lat="49.05126595450405" lon="2.50236680767014"><ele>102.19999999999999</ele><time>2026-03-30T16:39:47.999Z</time></trkpt><trkpt lat="49.05114561488678" lon="2.5024138284425765"><ele>101.6</ele><time>2026-03-30T16:39:49.999Z</time></trkpt><trkpt lat="49.05107491271391" lon="2.5024277299174233"><ele>101.0</ele><time>2026-03-30T16:39:50.999Z</time></trkpt><trkpt lat="49.05099627665877" lon="2.502450673575474"><ele>100.99999999999999</ele><time>2026-03-30T16:39:51.999Z</time></trkpt><trkpt lat="49.05090404115089" lon="2.50247671310176"><ele>101.0</ele><time>2026-03-30T16:39:52.999Z</time></trkpt><trkpt lat="49.05081333618015" lon="2.5025017483559666"><ele>101.0</ele><time>2026-03-30T16:39:53.999Z</time></trkpt><trkpt lat="49.05072411580432" lon="2.502524680483088"><ele>101.0</ele><time>2026-03-30T16:39:54.999Z</time></trkpt><trkpt lat="49.05063431681149" lon="2.5025491214292805"><ele>100.99999999999999</ele><time>2026-03-30T16:39:55.999Z</time></trkpt><trkpt lat="49.05055663974799" lon="2.5025671963058325"><ele>101.0</ele><time>2026-03-30T16:39:56.999Z</time></trkpt><trkpt lat="49.050484308062366" lon="2.5025774955569893"><ele>101.0</ele><time>2026-03-30T16:39:57.999Z</time></trkpt><trkpt lat="49.05041785582744" lon="2.5025909149953005"><ele>101.0</ele><time>2026-03-30T16:39:58.999Z</time></trkpt><trkpt lat="49.05028825367382" lon="2.5026156722888717"><ele>101.0</ele><time>2026-03-30T16:40:00.999Z</time></trkpt><trkpt lat="49.05020734942604" lon="2.502758691174207"><ele>101.0</ele><time>2026-03-30T16:40:02.999Z</time></trkpt><trkpt lat="49.050161873503555" lon="2.502844006711473"><ele>101.0</ele><time>2026-03-30T16:40:03.999Z</time></trkpt><trkpt lat="49.050102210753245" lon="2.5029421390667714"><ele>100.8</ele><time>2026-03-30T16:40:04.999Z</time></trkpt><trkpt lat="49.050038151660004" lon="2.5030559021913144"><ele>100.6</ele><time>2026-03-30T16:40:05.999Z</time></trkpt><trkpt lat="49.049986117138445" lon="2.5031537357500935"><ele>100.4</ele><time>2026-03-30T16:40:06.999Z</time></trkpt><trkpt lat="49.049932239401905" lon="2.503231769473641"><ele>100.2</ele><time>2026-03-30T16:40:07.999Z</time></trkpt><trkpt lat="49.049884959528065" lon="2.5033130281424896"><ele>100.0</ele><time>2026-03-30T16:40:08.998Z</time></trkpt><trkpt lat="49.04979316437214" lon="2.503481361633558"><ele>100.0</ele><time>2026-03-30T16:40:11Z</time></trkpt><trkpt lat="49.04971238474439" lon="2.503603965395217"><ele>100.0</ele><time>2026-03-30T16:40:12Z</time></trkpt><trkpt lat="49.04963653647775" lon="2.5037382208878967"><ele>100.0</ele><time>2026-03-30T16:40:13Z</time></trkpt><trkpt lat="49.04956803913338" lon="2.50386966742512"><ele>100.0</ele><time>2026-03-30T16:40:14Z</time></trkpt><trkpt lat="49.04949836921758" lon="2.5039940344290637"><ele>100.0</ele><time>2026-03-30T16:40:15Z</time></trkpt><trkpt lat="49.04942382321817" lon="2.5041137632918926"><ele>101.0</ele><time>2026-03-30T16:40:16Z</time></trkpt><trkpt lat="49.0493541817175" lon="2.504228219445862"><ele>102.0</ele><time>2026-03-30T16:40:17Z</time></trkpt><trkpt lat="49.049291300590696" lon="2.5043395620367708"><ele>103.0</ele><time>2026-03-30T16:40:18Z</time></trkpt><trkpt lat="49.04923456290084" lon="2.5044439219595978"><ele>104.0</ele><time>2026-03-30T16:40:19Z</time></trkpt><trkpt lat="49.0491675451184" lon="2.504528231926503"><ele>105.0</ele><time>2026-03-30T16:40:20Z</time></trkpt><trkpt lat="49.04911837839242" lon="2.504639897839949"><ele>106.0</ele><time>2026-03-30T16:40:21Z</time></trkpt><trkpt lat="49.049062498064906" lon="2.5047333970990144"><ele>107.0</ele><time>2026-03-30T16:40:22Z</time></trkpt><trkpt lat="49.04901163050911" lon="2.5048156659347143"><ele>108.0</ele><time>2026-03-30T16:40:23Z</time></trkpt><trkpt lat="49.04896887217931" lon="2.5048883057222793"><ele>109.0</ele><time>2026-03-30T16:40:24Z</time></trkpt><trkpt lat="49.04889858924005" lon="2.5049948366928456"><ele>110.0</ele><time>2026-03-30T16:40:26Z</time></trkpt><trkpt lat="49.04885146260816" lon="2.5051011797832445"><ele>111.0</ele><time>2026-03-30T16:40:34Z</time></trkpt><trkpt lat="49.04878337650092" lon="2.505209185280536"><ele>111.0</ele><time>2026-03-30T16:40:36Z</time></trkpt><trkpt lat="49.04873730472807" lon="2.5052860169078914"><ele>111.0</ele><time>2026-03-30T16:40:37Z</time></trkpt><trkpt lat="49.04868278931869" lon="2.5053718934594555"><ele>111.0</ele><time>2026-03-30T16:40:38Z</time></trkpt><trkpt lat="49.04862370886746" lon="2.5054722680628685"><ele>111.0</ele><time>2026-03-30T16:40:39Z</time></trkpt><trkpt lat="49.04856511160668" lon="2.5055766046067385"><ele>111.0</ele><time>2026-03-30T16:40:40Z</time></trkpt><trkpt lat="49.04850298393381" lon="2.505676921032775"><ele>111.0</ele><time>2026-03-30T16:40:41Z</time></trkpt><trkpt lat="49.04844713493963" lon="2.5057758897531777"><ele>111.0</ele><time>2026-03-30T16:40:42Z</time></trkpt><trkpt lat="49.04839265434818" lon="2.505868321293994"><ele>111.0</ele><time>2026-03-30T16:40:43Z</time></trkpt><trkpt lat="49.0483436139736" lon="2.5059484915384607"><ele>111.0</ele><time>2026-03-30T16:40:44Z</time></trkpt><trkpt lat="49.048296597312124" lon="2.5060269564272435"><ele>111.0</ele><time>2026-03-30T16:40:45Z</time></trkpt><trkpt lat="49.048245887890985" lon="2.5061029816810256"><ele>111.0</ele><time>2026-03-30T16:40:46Z</time></trkpt><trkpt lat="49.048180550943826" lon="2.5061854148917324"><ele>111.0</ele><time>2026-03-30T16:40:47Z</time></trkpt><trkpt lat="49.04811462696102" lon="2.5062747127682674"><ele>111.0</ele><time>2026-03-30T16:40:48Z</time></trkpt><trkpt lat="49.04805657994367" lon="2.5063579347768226"><ele>111.0</ele><time>2026-03-30T16:40:49Z</time></trkpt><trkpt lat="49.04799954762749" lon="2.5064475670444613"><ele>111.0</ele><time>2026-03-30T16:40:50Z</time></trkpt><trkpt lat="49.04794067340216" lon="2.5065363469576356"><ele>111.0</ele><time>2026-03-30T16:40:51Z</time></trkpt><trkpt lat="49.04787028409269" lon="2.50661732365221"><ele>111.0</ele><time>2026-03-30T16:40:52Z</time></trkpt><trkpt lat="49.047808522569646" lon="2.506709220763976"><ele>111.0</ele><time>2026-03-30T16:40:53Z</time></trkpt><trkpt lat="49.047742682552496" lon="2.506805381338169"><ele>111.0</ele><time>2026-03-30T16:40:54Z</time></trkpt><trkpt lat="49.047672245357354" lon="2.5068964231867925"><ele>111.0</ele><time>2026-03-30T16:40:55Z</time></trkpt><trkpt lat="49.047604882510775" lon="2.506995176128111"><ele>111.0</ele><time>2026-03-30T16:40:56Z</time></trkpt><trkpt lat="49.047534013406825" lon="2.507091673705597"><ele>111.0</ele><time>2026-03-30T16:40:57Z</time></trkpt><trkpt lat="49.04746280741871" lon="2.507181710753862"><ele>111.0</ele><time>2026-03-30T16:40:58Z</time></trkpt><trkpt lat="49.04739856701988" lon="2.5072746603148093"><ele>111.16666666666667</ele><time>2026-03-30T16:40:59Z</time></trkpt><trkpt lat="49.04733543555499" lon="2.507370026787654"><ele>111.33333333333334</ele><time>2026-03-30T16:41:00Z</time></trkpt><trkpt lat="49.04727322850377" lon="2.5074597958076055"><ele>111.5</ele><time>2026-03-30T16:41:00.999Z</time></trkpt><trkpt lat="49.047212626397815" lon="2.5075435274853324"><ele>111.66666666666667</ele><time>2026-03-30T16:41:01.999Z</time></trkpt><trkpt lat="49.04714878526481" lon="2.5076195537439836"><ele>111.83333333333334</ele><time>2026-03-30T16:41:02.999Z</time></trkpt><trkpt lat="49.047089565557" lon="2.507712227102693"><ele>112.0</ele><time>2026-03-30T16:41:03.999Z</time></trkpt><trkpt lat="49.047027386303185" lon="2.5077982472842373"><ele>112.0</ele><time>2026-03-30T16:41:04.999Z</time></trkpt><trkpt lat="49.04696216300128" lon="2.5078908509746896"><ele>111.99999999999999</ele><time>2026-03-30T16:41:05.999Z</time></trkpt><trkpt lat="49.046894325581256" lon="2.5079856303728425"><ele>111.99999999999999</ele><time>2026-03-30T16:41:06.999Z</time></trkpt><trkpt lat="49.04682328905433" lon="2.5080796614543557"><ele>112.0</ele><time>2026-03-30T16:41:07.999Z</time></trkpt><trkpt lat="49.04675362202389" lon="2.50817868378251"><ele>112.0</ele><time>2026-03-30T16:41:08.999Z</time></trkpt><trkpt lat="49.04668621650045" lon="2.5082740835136574"><ele>112.33333333333334</ele><time>2026-03-30T16:41:09.999Z</time></trkpt><trkpt lat="49.04662008687285" lon="2.5083700997915352"><ele>112.66666666666667</ele><time>2026-03-30T16:41:10.999Z</time></trkpt><trkpt lat="49.046553969445526" lon="2.5084594448734636"><ele>113.0</ele><time>2026-03-30T16:41:11.999Z</time></trkpt><trkpt lat="49.04648599702094" lon="2.508550834866127"><ele>113.33333333333334</ele><time>2026-03-30T16:41:12.999Z</time></trkpt><trkpt lat="49.046425491606556" lon="2.5086404683097014"><ele>113.66666666666667</ele><time>2026-03-30T16:41:13.999Z</time></trkpt><trkpt lat="49.046357314909585" lon="2.5087075403267147"><ele>114.0</ele><time>2026-03-30T16:41:14.999Z</time></trkpt><trkpt lat="49.046306708137195" lon="2.5088034838744995"><ele>113.33333333333333</ele><time>2026-03-30T16:41:15.999Z</time></trkpt><trkpt lat="49.046254167298294" lon="2.5088848129142383"><ele>112.66666666666666</ele><time>2026-03-30T16:41:16.999Z</time></trkpt><trkpt lat="49.04619660964853" lon="2.5089542777685914"><ele>112.0</ele><time>2026-03-30T16:41:17.999Z</time></trkpt><trkpt lat="49.04614445821443" lon="2.5090280324734477"><ele>111.33333333333333</ele><time>2026-03-30T16:41:18.999Z</time></trkpt><trkpt lat="49.04609408958581" lon="2.509100965147901"><ele>110.66666666666666</ele><time>2026-03-30T16:41:19.999Z</time></trkpt><trkpt lat="49.04604008503657" lon="2.5091616483997883"><ele>110.0</ele><time>2026-03-30T16:41:20.999Z</time></trkpt><trkpt lat="49.045964113451795" lon="2.509272894245969"><ele>109.99999999999999</ele><time>2026-03-30T16:41:22.999Z</time></trkpt><trkpt lat="49.04589689731964" lon="2.509359877095829"><ele>110.0</ele><time>2026-03-30T16:41:24.999Z</time></trkpt><trkpt lat="49.04585123036632" lon="2.5094287156571613"><ele>110.0</ele><time>2026-03-30T16:41:28.999Z</time></trkpt><trkpt lat="49.045797380537365" lon="2.509493865132248"><ele>110.0</ele><time>2026-03-30T16:41:31.999Z</time></trkpt><trkpt lat="49.04574290785128" lon="2.5095711053171175"><ele>109.99999999999999</ele><time>2026-03-30T16:41:34.999Z</time></trkpt><trkpt lat="49.045691135269145" lon="2.509628310441206"><ele>110.0</ele><time>2026-03-30T16:41:36.999Z</time></trkpt><trkpt lat="49.045621992245366" lon="2.509737544900172"><ele>109.66666666666666</ele><time>2026-03-30T16:41:38.999Z</time></trkpt><trkpt lat="49.045610583644894" lon="2.509836873532782"><ele>109.33333333333333</ele><time>2026-03-30T16:41:39.999Z</time></trkpt><trkpt lat="49.04561690781015" lon="2.5099435971775033"><ele>109.0</ele><time>2026-03-30T16:41:40.999Z</time></trkpt><trkpt lat="49.045633470423155" lon="2.5100689319414946"><ele>108.66666666666666</ele><time>2026-03-30T16:41:41.999Z</time></trkpt><trkpt lat="49.04565947252514" lon="2.5102156981875305"><ele>108.33333333333333</ele><time>2026-03-30T16:41:42.999Z</time></trkpt><trkpt lat="49.0456899200578" lon="2.5103651612052085"><ele>108.0</ele><time>2026-03-30T16:41:43.999Z</time></trkpt><trkpt lat="49.045720956263644" lon="2.5105035737788923"><ele>107.83333333333333</ele><time>2026-03-30T16:41:44.999Z</time></trkpt><trkpt lat="49.04575696685021" lon="2.5106282939406652"><ele>107.66666666666666</ele><time>2026-03-30T16:41:45.999Z</time></trkpt><trkpt lat="49.045792559812355" lon="2.5107501962529906"><ele>107.5</ele><time>2026-03-30T16:41:46.999Z</time></trkpt><trkpt lat="49.045816260012735" lon="2.510873071655216"><ele>107.33333333333333</ele><time>2026-03-30T16:41:47.999Z</time></trkpt><trkpt lat="49.04580202076257" lon="2.510984901772071"><ele>107.16666666666666</ele><time>2026-03-30T16:41:48.999Z</time></trkpt><trkpt lat="49.04574335106198" lon="2.5110671461239376"><ele>107.0</ele><time>2026-03-30T16:41:49.999Z</time></trkpt><trkpt lat="49.04566880418867" lon="2.511117630121823"><ele>106.5</ele><time>2026-03-30T16:41:50.999Z</time></trkpt><trkpt lat="49.04558251380484" lon="2.511126678683514"><ele>106.0</ele><time>2026-03-30T16:41:51.999Z</time></trkpt><trkpt lat="49.045474021920676" lon="2.51112285249554"><ele>105.5</ele><time>2026-03-30T16:41:52.999Z</time></trkpt><trkpt lat="49.04535117211537" lon="2.5111228060225295"><ele>105.0</ele><time>2026-03-30T16:41:53.999Z</time></trkpt><trkpt lat="49.045204131921956" lon="2.511116218379578"><ele>105.0</ele><time>2026-03-30T16:41:54.999Z</time></trkpt><trkpt lat="49.045031180378" lon="2.5110919451520317"><ele>105.0</ele><time>2026-03-30T16:41:55.999Z</time></trkpt><trkpt lat="49.04485443496011" lon="2.511069387015322"><ele>105.0</ele><time>2026-03-30T16:41:56.999Z</time></trkpt><trkpt lat="49.044662509564965" lon="2.511042606950979"><ele>104.66666666666666</ele><time>2026-03-30T16:41:57.999Z</time></trkpt><trkpt lat="49.044464716824294" lon="2.5110166485681225"><ele>104.33333333333333</ele><time>2026-03-30T16:41:58.999Z</time></trkpt><trkpt lat="49.04426124092931" lon="2.51098359557908"><ele>104.0</ele><time>2026-03-30T16:41:59.999Z</time></trkpt><trkpt lat="49.044054085303735" lon="2.5109597286392913"><ele>103.0</ele><time>2026-03-30T16:42:00.998Z</time></trkpt><trkpt lat="49.04384214291309" lon="2.510931767141853"><ele>102.0</ele><time>2026-03-30T16:42:01.998Z</time></trkpt><trkpt lat="49.043627471924594" lon="2.5108927897547093"><ele>101.0</ele><time>2026-03-30T16:42:02.998Z</time></trkpt><trkpt lat="49.043408184682555" lon="2.510848480409194"><ele>99.66666666666666</ele><time>2026-03-30T16:42:03.998Z</time></trkpt><trkpt lat="49.04319093695885" lon="2.510806778061788"><ele>98.33333333333334</ele><time>2026-03-30T16:42:04.998Z</time></trkpt><trkpt lat="49.04297562885104" lon="2.510760433873653"><ele>97.0</ele><time>2026-03-30T16:42:05.998Z</time></trkpt><trkpt lat="49.042759713417354" lon="2.510714365410191"><ele>97.0</ele><time>2026-03-30T16:42:06.998Z</time></trkpt><trkpt lat="49.04254081833227" lon="2.5106712561284374"><ele>97.0</ele><time>2026-03-30T16:42:07.998Z</time></trkpt><trkpt lat="49.042319590426075" lon="2.5106263634564288"><ele>97.0</ele><time>2026-03-30T16:42:08.998Z</time></trkpt><trkpt lat="49.04209850050988" lon="2.5105768709038956"><ele>96.33333333333334</ele><time>2026-03-30T16:42:09.998Z</time></trkpt><trkpt lat="49.041877324509144" lon="2.510521472984425"><ele>95.66666666666667</ele><time>2026-03-30T16:42:10.998Z</time></trkpt><trkpt lat="49.04165988119983" lon="2.5104489463963655"><ele>95.0</ele><time>2026-03-30T16:42:11.998Z</time></trkpt><trkpt lat="49.04144051476228" lon="2.5103617106286205"><ele>92.0</ele><time>2026-03-30T16:42:12.998Z</time></trkpt><trkpt lat="49.0412234180494" lon="2.5102682881555287"><ele>89.0</ele><time>2026-03-30T16:42:13.998Z</time></trkpt><trkpt lat="49.04100808004811" lon="2.510170513726397"><ele>87.66666666666667</ele><time>2026-03-30T16:42:14.998Z</time></trkpt><trkpt lat="49.04079483426432" lon="2.5100666010909793"><ele>86.33333333333333</ele><time>2026-03-30T16:42:16Z</time></trkpt><trkpt lat="49.0405865943788" lon="2.5099615329109835"><ele>85.0</ele><time>2026-03-30T16:42:17Z</time></trkpt><trkpt lat="49.04037564991436" lon="2.5098519163441035"><ele>85.0</ele><time>2026-03-30T16:42:18Z</time></trkpt><trkpt lat="49.04016694384964" lon="2.5097291288453047"><ele>85.0</ele><time>2026-03-30T16:42:19Z</time></trkpt><trkpt lat="49.039961949489694" lon="2.5095965827356004"><ele>85.0</ele><time>2026-03-30T16:42:20Z</time></trkpt><trkpt lat="49.03975692202105" lon="2.5094539268841345"><ele>82.66666666666666</ele><time>2026-03-30T16:42:21Z</time></trkpt><trkpt lat="49.03955367958847" lon="2.50930732250502"><ele>80.33333333333333</ele><time>2026-03-30T16:42:22Z</time></trkpt><trkpt lat="49.03935561411925" lon="2.5091511998392417"><ele>78.0</ele><time>2026-03-30T16:42:23Z</time></trkpt><trkpt lat="49.03915720748332" lon="2.5089921464015625"><ele>77.5</ele><time>2026-03-30T16:42:24Z</time></trkpt><trkpt lat="49.038959625484736" lon="2.5088287153232733"><ele>77.0</ele><time>2026-03-30T16:42:25Z</time></trkpt><trkpt lat="49.038762680986956" lon="2.508660782319917"><ele>77.0</ele><time>2026-03-30T16:42:26Z</time></trkpt><trkpt lat="49.038568195920206" lon="2.5084953927784923"><ele>77.0</ele><time>2026-03-30T16:42:27Z</time></trkpt><trkpt lat="49.038373710401856" lon="2.5083410994465116"><ele>77.0</ele><time>2026-03-30T16:42:28Z</time></trkpt><trkpt lat="49.03818885662834" lon="2.50818704784225"><ele>78.66666666666667</ele><time>2026-03-30T16:42:29Z</time></trkpt><trkpt lat="49.038008698866406" lon="2.508033916790601"><ele>80.33333333333333</ele><time>2026-03-30T16:42:30Z</time></trkpt><trkpt lat="49.0378315754842" lon="2.50787984899843"><ele>82.0</ele><time>2026-03-30T16:42:31Z</time></trkpt><trkpt lat="49.03765290053802" lon="2.5077224009699988"><ele>82.0</ele><time>2026-03-30T16:42:32Z</time></trkpt><trkpt lat="49.037471143534454" lon="2.5075661751470246"><ele>82.0</ele><time>2026-03-30T16:42:33Z</time></trkpt><trkpt lat="49.03729051780921" lon="2.5074057138124437"><ele>82.0</ele><time>2026-03-30T16:42:34Z</time></trkpt><trkpt lat="49.03710712884041" lon="2.5072448588748237"><ele>83.33333333333333</ele><time>2026-03-30T16:42:35Z</time></trkpt><trkpt lat="49.03691771181528" lon="2.507083722961268"><ele>84.66666666666667</ele><time>2026-03-30T16:42:36Z</time></trkpt><trkpt lat="49.03672763899068" lon="2.5069271215645483"><ele>86.0</ele><time>2026-03-30T16:42:37Z</time></trkpt><trkpt lat="49.03653459192024" lon="2.50676912993812"><ele>88.0</ele><time>2026-03-30T16:42:38Z</time></trkpt><trkpt lat="49.036341564494485" lon="2.5066111068151535"><ele>90.0</ele><time>2026-03-30T16:42:39Z</time></trkpt><trkpt lat="49.03614984630168" lon="2.5064496240570118"><ele>92.0</ele><time>2026-03-30T16:42:40Z</time></trkpt><trkpt lat="49.03595821981989" lon="2.506286073957825"><ele>92.66666666666667</ele><time>2026-03-30T16:42:41Z</time></trkpt><trkpt lat="49.03576593253729" lon="2.5061209280170837"><ele>93.33333333333333</ele><time>2026-03-30T16:42:42Z</time></trkpt><trkpt lat="49.03557233193393" lon="2.5059619759883556"><ele>94.0</ele><time>2026-03-30T16:42:43Z</time></trkpt><trkpt lat="49.035381602028096" lon="2.505809289422185"><ele>94.0</ele><time>2026-03-30T16:42:44Z</time></trkpt><trkpt lat="49.03519136019504" lon="2.5056592298472795"><ele>94.0</ele><time>2026-03-30T16:42:45Z</time></trkpt><trkpt lat="49.03500070382388" lon="2.505510040233301"><ele>94.0</ele><time>2026-03-30T16:42:46Z</time></trkpt><trkpt lat="49.03481241136208" lon="2.505367504193525"><ele>95.66666666666666</ele><time>2026-03-30T16:42:47Z</time></trkpt><trkpt lat="49.03461753642199" lon="2.5052245217364755"><ele>97.33333333333333</ele><time>2026-03-30T16:42:48Z</time></trkpt><trkpt lat="49.034426032014856" lon="2.5050881087710857"><ele>99.0</ele><time>2026-03-30T16:42:49Z</time></trkpt><trkpt lat="49.03422996677072" lon="2.5049518512184186"><ele>99.66666666666666</ele><time>2026-03-30T16:42:50Z</time></trkpt><trkpt lat="49.034033063450025" lon="2.5048201553898384"><ele>100.33333333333333</ele><time>2026-03-30T16:42:51Z</time></trkpt><trkpt lat="49.03383654495767" lon="2.504696110706878"><ele>101.0</ele><time>2026-03-30T16:42:52Z</time></trkpt><trkpt lat="49.033637565222215" lon="2.5045725807084662"><ele>101.0</ele><time>2026-03-30T16:42:53Z</time></trkpt><trkpt lat="49.03343787078089" lon="2.5044504839762385"><ele>101.0</ele><time>2026-03-30T16:42:54Z</time></trkpt><trkpt lat="49.033240672803935" lon="2.50432729574053"><ele>101.0</ele><time>2026-03-30T16:42:55Z</time></trkpt><trkpt lat="49.03304116498554" lon="2.5041968881414394"><ele>101.33333333333333</ele><time>2026-03-30T16:42:56Z</time></trkpt><trkpt lat="49.03284432461237" lon="2.5040634587328956"><ele>101.66666666666666</ele><time>2026-03-30T16:42:57Z</time></trkpt><trkpt lat="49.0326474200094" lon="2.5039292812027023"><ele>102.0</ele><time>2026-03-30T16:42:58Z</time></trkpt><trkpt lat="49.032453178128165" lon="2.503792389473357"><ele>102.33333333333334</ele><time>2026-03-30T16:42:59Z</time></trkpt><trkpt lat="49.032274004656166" lon="2.5036525788374293"><ele>102.66666666666667</ele><time>2026-03-30T16:43:00Z</time></trkpt><trkpt lat="49.03210737945451" lon="2.503504335312858"><ele>103.0</ele><time>2026-03-30T16:43:01Z</time></trkpt><trkpt lat="49.031955001133774" lon="2.503339114259243"><ele>103.0</ele><time>2026-03-30T16:43:02Z</time></trkpt><trkpt lat="49.031819117822934" lon="2.5031576861211535"><ele>103.0</ele><time>2026-03-30T16:43:03Z</time></trkpt><trkpt lat="49.03169409613178" lon="2.5029616748785113"><ele>103.0</ele><time>2026-03-30T16:43:04Z</time></trkpt><trkpt lat="49.03157954307509" lon="2.502751993295229"><ele>102.66666666666667</ele><time>2026-03-30T16:43:04.999Z</time></trkpt><trkpt lat="49.0314789876856" lon="2.5025416897445054"><ele>102.33333333333334</ele><time>2026-03-30T16:43:05.999Z</time></trkpt><trkpt lat="49.031389693972464" lon="2.5023288810287174"><ele>102.0</ele><time>2026-03-30T16:43:06.999Z</time></trkpt><trkpt lat="49.03130974164657" lon="2.502118292151169"><ele>101.66666666666666</ele><time>2026-03-30T16:43:07.999Z</time></trkpt><trkpt lat="49.0312354615603" lon="2.5019129154282367"><ele>101.33333333333333</ele><time>2026-03-30T16:43:08.999Z</time></trkpt><trkpt lat="49.031163146545616" lon="2.5017185988303057"><ele>101.0</ele><time>2026-03-30T16:43:09.999Z</time></trkpt><trkpt lat="49.03108390877281" lon="2.5015196087749527"><ele>101.0</ele><time>2026-03-30T16:43:10.999Z</time></trkpt><trkpt lat="49.031001891868556" lon="2.501334697408749"><ele>101.0</ele><time>2026-03-30T16:43:11.999Z</time></trkpt><trkpt lat="49.03091623263585" lon="2.5011529204214447"><ele>101.0</ele><time>2026-03-30T16:43:12.999Z</time></trkpt><trkpt lat="49.030831407110156" lon="2.5009715011222973"><ele>101.0</ele><time>2026-03-30T16:43:13.999Z</time></trkpt><trkpt lat="49.03075039414096" lon="2.5008054903355315"><ele>100.6</ele><time>2026-03-30T16:43:14.999Z</time></trkpt><trkpt lat="49.03066985474763" lon="2.5006489795036186"><ele>100.19999999999999</ele><time>2026-03-30T16:43:15.999Z</time></trkpt><trkpt lat="49.03058466978438" lon="2.500505662626126"><ele>99.80000000000001</ele><time>2026-03-30T16:43:16.999Z</time></trkpt><trkpt lat="49.03051384457512" lon="2.5003851079474213"><ele>99.4</ele><time>2026-03-30T16:43:17.999Z</time></trkpt><trkpt lat="49.030461557682216" lon="2.5002985098692583"><ele>99.0</ele><time>2026-03-30T16:43:18.999Z</time></trkpt><trkpt lat="49.03039795451517" lon="2.5002001410912515"><ele>99.0</ele><time>2026-03-30T16:43:20.999Z</time></trkpt><trkpt lat="49.03035626747108" lon="2.500108621174845"><ele>99.0</ele><time>2026-03-30T16:43:22.999Z</time></trkpt><trkpt lat="49.030248459836166" lon="2.499967196302144"><ele>99.0</ele><time>2026-03-30T16:43:24.999Z</time></trkpt><trkpt lat="49.030175733847265" lon="2.499854161891364"><ele>99.0</ele><time>2026-03-30T16:43:26.999Z</time></trkpt><trkpt lat="49.03012926452683" lon="2.499769870519768"><ele>99.0</ele><time>2026-03-30T16:43:29.999Z</time></trkpt><trkpt lat="49.030079711504065" lon="2.499642923182318"><ele>98.75</ele><time>2026-03-30T16:43:37.999Z</time></trkpt><trkpt lat="49.03004492472769" lon="2.499417924734379"><ele>98.5</ele><time>2026-03-30T16:43:39.999Z</time></trkpt><trkpt lat="49.03001530717975" lon="2.499265952844427"><ele>98.25</ele><time>2026-03-30T16:43:40.999Z</time></trkpt><trkpt lat="49.02996232045287" lon="2.4990793195274694"><ele>98.0</ele><time>2026-03-30T16:43:41.999Z</time></trkpt><trkpt lat="49.02989508380079" lon="2.4989377945170728"><ele>98.0</ele><time>2026-03-30T16:43:42.999Z</time></trkpt><trkpt lat="49.029812392616996" lon="2.498826716910205"><ele>98.0</ele><time>2026-03-30T16:43:43.999Z</time></trkpt><trkpt lat="49.02971300184644" lon="2.4987321110603644"><ele>98.0</ele><time>2026-03-30T16:43:44.999Z</time></trkpt><trkpt lat="49.02960295496316" lon="2.498674071863109"><ele>98.0</ele><time>2026-03-30T16:43:45.999Z</time></trkpt><trkpt lat="49.02949564800057" lon="2.498643378560936"><ele>98.0</ele><time>2026-03-30T16:43:46.999Z</time></trkpt><trkpt lat="49.029391680463874" lon="2.498639884680238"><ele>98.0</ele><time>2026-03-30T16:43:47.999Z</time></trkpt><trkpt lat="49.0292899076095" lon="2.498656608119842"><ele>98.0</ele><time>2026-03-30T16:43:48.999Z</time></trkpt><trkpt lat="49.029183345919215" lon="2.4986999943326644"><ele>98.0</ele><time>2026-03-30T16:43:49.999Z</time></trkpt><trkpt lat="49.02907498084449" lon="2.498770615895708"><ele>98.0</ele><time>2026-03-30T16:43:50.999Z</time></trkpt><trkpt lat="49.02897902367067" lon="2.4988757767468677"><ele>98.0</ele><time>2026-03-30T16:43:51.999Z</time></trkpt><trkpt lat="49.028897139294884" lon="2.4989963975196323"><ele>98.0</ele><time>2026-03-30T16:43:52.999Z</time></trkpt><trkpt lat="49.02883581005909" lon="2.4991309698569624"><ele>98.0</ele><time>2026-03-30T16:43:53.999Z</time></trkpt><trkpt lat="49.0287876849196" lon="2.49926342430584"><ele>98.0</ele><time>2026-03-30T16:43:54.999Z</time></trkpt><trkpt lat="49.02873738774515" lon="2.499359420851746"><ele>98.0</ele><time>2026-03-30T16:43:55.999Z</time></trkpt><trkpt lat="49.02866626598821" lon="2.499427023875047"><ele>98.0</ele><time>2026-03-30T16:43:56.999Z</time></trkpt><trkpt lat="49.02857381232581" lon="2.4994705705568103"><ele>98.0</ele><time>2026-03-30T16:43:57.999Z</time></trkpt><trkpt lat="49.0284738707272" lon="2.4994793164762967"><ele>98.0</ele><time>2026-03-30T16:43:58.999Z</time></trkpt><trkpt lat="49.0283593043328" lon="2.4994834663834005"><ele>98.0</ele><time>2026-03-30T16:43:59.999Z</time></trkpt><trkpt lat="49.028230171389886" lon="2.4994803675598782"><ele>98.0</ele><time>2026-03-30T16:44:00.999Z</time></trkpt><trkpt lat="49.028088314302416" lon="2.499482266927713"><ele>97.33333333333333</ele><time>2026-03-30T16:44:01.999Z</time></trkpt><trkpt lat="49.027932967619115" lon="2.499501584695364"><ele>96.66666666666666</ele><time>2026-03-30T16:44:02.998Z</time></trkpt><trkpt lat="49.02775292624192" lon="2.4995290743984917"><ele>96.0</ele><time>2026-03-30T16:44:03.998Z</time></trkpt><trkpt lat="49.027546560045764" lon="2.499546613673179"><ele>96.33333333333334</ele><time>2026-03-30T16:44:04.998Z</time></trkpt><trkpt lat="49.0273293108246" lon="2.499569375000129"><ele>96.66666666666667</ele><time>2026-03-30T16:44:05.998Z</time></trkpt><trkpt lat="49.02710234920082" lon="2.4996098035183167"><ele>97.0</ele><time>2026-03-30T16:44:06.998Z</time></trkpt><trkpt lat="49.02687823878995" lon="2.4996640957062475"><ele>98.0</ele><time>2026-03-30T16:44:07.998Z</time></trkpt><trkpt lat="49.02665828449302" lon="2.4997189831908186"><ele>99.0</ele><time>2026-03-30T16:44:08.998Z</time></trkpt><trkpt lat="49.0264319881707" lon="2.4997561444017578"><ele>100.0</ele><time>2026-03-30T16:44:09.998Z</time></trkpt><trkpt lat="49.02620789269155" lon="2.4997739259235656"><ele>101.0</ele><time>2026-03-30T16:44:10.998Z</time></trkpt><trkpt lat="49.025985214134565" lon="2.4997565563288897"><ele>102.0</ele><time>2026-03-30T16:44:11.998Z</time></trkpt><trkpt lat="49.02575948819139" lon="2.4997069797287303"><ele>102.0</ele><time>2026-03-30T16:44:12.998Z</time></trkpt><trkpt lat="49.025541647874114" lon="2.4996345913628266"><ele>102.0</ele><time>2026-03-30T16:44:13.998Z</time></trkpt><trkpt lat="49.025331451209645" lon="2.4995389439939277"><ele>102.0</ele><time>2026-03-30T16:44:14.998Z</time></trkpt><trkpt lat="49.02512578939642" lon="2.499422663949065"><ele>102.0</ele><time>2026-03-30T16:44:15.998Z</time></trkpt><trkpt lat="49.024925919536734" lon="2.499280596729617"><ele>102.0</ele><time>2026-03-30T16:44:16.998Z</time></trkpt><trkpt lat="49.024731755826465" lon="2.4991228922078697"><ele>102.0</ele><time>2026-03-30T16:44:17.998Z</time></trkpt><trkpt lat="49.02454130675319" lon="2.498956547128709"><ele>102.0</ele><time>2026-03-30T16:44:18.998Z</time></trkpt><trkpt lat="49.0243487110948" lon="2.4987934361369253"><ele>102.0</ele><time>2026-03-30T16:44:19.998Z</time></trkpt><trkpt lat="49.02414977215624" lon="2.4986317153421624"><ele>102.0</ele><time>2026-03-30T16:44:20.998Z</time></trkpt><trkpt lat="49.023947760992066" lon="2.4984685292743367"><ele>101.5</ele><time>2026-03-30T16:44:22Z</time></trkpt><trkpt lat="49.02373775405657" lon="2.4983115230951602"><ele>101.0</ele><time>2026-03-30T16:44:23Z</time></trkpt><trkpt lat="49.023523120240064" lon="2.4981642489323765"><ele>101.5</ele><time>2026-03-30T16:44:24Z</time></trkpt><trkpt lat="49.02330544670318" lon="2.4980234382514124"><ele>102.0</ele><time>2026-03-30T16:44:25Z</time></trkpt><trkpt lat="49.02308635224096" lon="2.497885486053822"><ele>102.5</ele><time>2026-03-30T16:44:26Z</time></trkpt><trkpt lat="49.02286836494469" lon="2.4977510875413214"><ele>103.0</ele><time>2026-03-30T16:44:27Z</time></trkpt><trkpt lat="49.02265036582688" lon="2.4976124635215884"><ele>104.0</ele><time>2026-03-30T16:44:28Z</time></trkpt><trkpt lat="49.022431662512055" lon="2.4974704134061727"><ele>105.0</ele><time>2026-03-30T16:44:29Z</time></trkpt><trkpt lat="49.022214407385476" lon="2.4973302717598638"><ele>105.0</ele><time>2026-03-30T16:44:30Z</time></trkpt><trkpt lat="49.02199364124594" lon="2.497188737994168"><ele>105.0</ele><time>2026-03-30T16:44:31Z</time></trkpt><trkpt lat="49.02176896557671" lon="2.497045228797613"><ele>105.0</ele><time>2026-03-30T16:44:32Z</time></trkpt><trkpt lat="49.021540602897225" lon="2.4969011247198822"><ele>105.0</ele><time>2026-03-30T16:44:33Z</time></trkpt><trkpt lat="49.02131413030787" lon="2.496758093058966"><ele>105.0</ele><time>2026-03-30T16:44:34Z</time></trkpt><trkpt lat="49.02108466695768" lon="2.496610582845347"><ele>105.0</ele><time>2026-03-30T16:44:35Z</time></trkpt><trkpt lat="49.020858664198094" lon="2.496458827911538"><ele>104.5</ele><time>2026-03-30T16:44:36Z</time></trkpt><trkpt lat="49.020632804484734" lon="2.496298286994463"><ele>104.0</ele><time>2026-03-30T16:44:37Z</time></trkpt><trkpt lat="49.02040378649487" lon="2.496141369002172"><ele>104.0</ele><time>2026-03-30T16:44:38Z</time></trkpt><trkpt lat="49.02017829838692" lon="2.495991000366776"><ele>104.0</ele><time>2026-03-30T16:44:39Z</time></trkpt><trkpt lat="49.01995313089906" lon="2.4958454184116188"><ele>104.0</ele><time>2026-03-30T16:44:40Z</time></trkpt><trkpt lat="49.01972912727605" lon="2.495700025265683"><ele>104.0</ele><time>2026-03-30T16:44:41Z</time></trkpt><trkpt lat="49.019504414262734" lon="2.4955537805336743"><ele>104.0</ele><time>2026-03-30T16:44:42Z</time></trkpt><trkpt lat="49.01927963952368" lon="2.4954093640235935"><ele>104.0</ele><time>2026-03-30T16:44:43Z</time></trkpt><trkpt lat="49.019056422547735" lon="2.4952682173941616"><ele>105.0</ele><time>2026-03-30T16:44:44Z</time></trkpt><trkpt lat="49.01883420714497" lon="2.4951274472031977"><ele>106.0</ele><time>2026-03-30T16:44:45Z</time></trkpt><trkpt lat="49.01861271269886" lon="2.494987189944861"><ele>106.0</ele><time>2026-03-30T16:44:46Z</time></trkpt><trkpt lat="49.01839193042365" lon="2.4948483455946486"><ele>106.0</ele><time>2026-03-30T16:44:47Z</time></trkpt><trkpt lat="49.018171295991415" lon="2.494707229393712"><ele>106.0</ele><time>2026-03-30T16:44:48Z</time></trkpt><trkpt lat="49.017951992260585" lon="2.4945619875722174"><ele>106.0</ele><time>2026-03-30T16:44:49Z</time></trkpt><trkpt lat="49.01773095489247" lon="2.4944192783190555"><ele>106.0</ele><time>2026-03-30T16:44:50Z</time></trkpt><trkpt lat="49.01751009879648" lon="2.494278607738687"><ele>106.0</ele><time>2026-03-30T16:44:51Z</time></trkpt><trkpt lat="49.01728998626861" lon="2.4941378522636852"><ele>105.5</ele><time>2026-03-30T16:44:52Z</time></trkpt><trkpt lat="49.017069201226235" lon="2.4939964490054773"><ele>105.0</ele><time>2026-03-30T16:44:53Z</time></trkpt><trkpt lat="49.016849069760205" lon="2.4938569052899417"><ele>105.0</ele><time>2026-03-30T16:44:54Z</time></trkpt><trkpt lat="49.01662636708877" lon="2.493717132303634"><ele>105.0</ele><time>2026-03-30T16:44:55Z</time></trkpt><trkpt lat="49.016402830145964" lon="2.493585750979359"><ele>105.0</ele><time>2026-03-30T16:44:56Z</time></trkpt><trkpt lat="49.01617585234288" lon="2.4934665185617546"><ele>105.0</ele><time>2026-03-30T16:44:57Z</time></trkpt><trkpt lat="49.01594552605701" lon="2.4933618836905564"><ele>105.0</ele><time>2026-03-30T16:44:58Z</time></trkpt><trkpt lat="49.01571415434404" lon="2.493263513338861"><ele>105.0</ele><time>2026-03-30T16:44:59Z</time></trkpt><trkpt lat="49.015483887987116" lon="2.4931679385383587"><ele>105.0</ele><time>2026-03-30T16:45:00Z</time></trkpt><trkpt lat="49.01525227215495" lon="2.493073537721419"><ele>105.0</ele><time>2026-03-30T16:45:01Z</time></trkpt><trkpt lat="49.01502320565698" lon="2.49298384487397"><ele>105.5</ele><time>2026-03-30T16:45:02Z</time></trkpt><trkpt lat="49.0147922380157" lon="2.4928915774561977"><ele>106.0</ele><time>2026-03-30T16:45:03Z</time></trkpt><trkpt lat="49.01456170045472" lon="2.492792319261853"><ele>106.0</ele><time>2026-03-30T16:45:04Z</time></trkpt><trkpt lat="49.014335220842405" lon="2.492691659330453"><ele>106.0</ele><time>2026-03-30T16:45:05Z</time></trkpt><trkpt lat="49.01411373790762" lon="2.4925947748473907"><ele>105.0</ele><time>2026-03-30T16:45:06Z</time></trkpt><trkpt lat="49.013895857998754" lon="2.4925007397160455"><ele>104.0</ele><time>2026-03-30T16:45:06.999Z</time></trkpt><trkpt lat="49.01368047754093" lon="2.4924088322742692"><ele>104.0</ele><time>2026-03-30T16:45:07.999Z</time></trkpt><trkpt lat="49.01346957495769" lon="2.4923158307396394"><ele>104.0</ele><time>2026-03-30T16:45:08.999Z</time></trkpt><trkpt lat="49.01327318334808" lon="2.4922265110567263"><ele>104.0</ele><time>2026-03-30T16:45:09.999Z</time></trkpt><trkpt lat="49.0130833214144" lon="2.4921375378994237"><ele>103.66666666666666</ele><time>2026-03-30T16:45:10.999Z</time></trkpt><trkpt lat="49.012901896571776" lon="2.492051889101234"><ele>103.33333333333334</ele><time>2026-03-30T16:45:11.999Z</time></trkpt><trkpt lat="49.01272595380113" lon="2.491972219345536"><ele>103.0</ele><time>2026-03-30T16:45:12.999Z</time></trkpt><trkpt lat="49.0125538955158" lon="2.4918931604567427"><ele>103.33333333333334</ele><time>2026-03-30T16:45:13.999Z</time></trkpt><trkpt lat="49.01238702583991" lon="2.491818580166952"><ele>103.66666666666666</ele><time>2026-03-30T16:45:14.999Z</time></trkpt><trkpt lat="49.01222744499411" lon="2.491744380824635"><ele>104.0</ele><time>2026-03-30T16:45:15.999Z</time></trkpt><trkpt lat="49.01207378747165" lon="2.4916588046483987"><ele>104.0</ele><time>2026-03-30T16:45:16.999Z</time></trkpt><trkpt lat="49.011915802436775" lon="2.4915711985080753"><ele>104.0</ele><time>2026-03-30T16:45:17.999Z</time></trkpt><trkpt lat="49.011762327894644" lon="2.491488157636374"><ele>104.0</ele><time>2026-03-30T16:45:18.999Z</time></trkpt><trkpt lat="49.01161039060622" lon="2.491409937128243"><ele>103.75</ele><time>2026-03-30T16:45:19.999Z</time></trkpt><trkpt lat="49.0114581141249" lon="2.49133636289679"><ele>103.5</ele><time>2026-03-30T16:45:20.999Z</time></trkpt><trkpt lat="49.01131086313524" lon="2.4912736927241994"><ele>103.25</ele><time>2026-03-30T16:45:21.999Z</time></trkpt><trkpt lat="49.01117833940038" lon="2.4912213657842424"><ele>103.0</ele><time>2026-03-30T16:45:22.999Z</time></trkpt><trkpt lat="49.01105816595762" lon="2.4911742556954986"><ele>103.0</ele><time>2026-03-30T16:45:23.999Z</time></trkpt><trkpt lat="49.01093921194587" lon="2.4911204164385254"><ele>103.0</ele><time>2026-03-30T16:45:24.999Z</time></trkpt><trkpt lat="49.01082817110481" lon="2.491046384148454"><ele>103.0</ele><time>2026-03-30T16:45:25.999Z</time></trkpt><trkpt lat="49.010734942512116" lon="2.4909486626917574"><ele>103.0</ele><time>2026-03-30T16:45:26.999Z</time></trkpt><trkpt lat="49.010661143189836" lon="2.4908260769867847"><ele>103.0</ele><time>2026-03-30T16:45:27.999Z</time></trkpt><trkpt lat="49.01061070756988" lon="2.490680575571612"><ele>103.0</ele><time>2026-03-30T16:45:28.999Z</time></trkpt><trkpt lat="49.010595687675334" lon="2.490532918872416"><ele>103.0</ele><time>2026-03-30T16:45:29.999Z</time></trkpt><trkpt lat="49.01060132755962" lon="2.4904016960315394"><ele>103.0</ele><time>2026-03-30T16:45:30.999Z</time></trkpt><trkpt lat="49.01061983934408" lon="2.490285555060143"><ele>103.0</ele><time>2026-03-30T16:45:31.999Z</time></trkpt><trkpt lat="49.01064260218556" lon="2.49016880427248"><ele>102.80000000000001</ele><time>2026-03-30T16:45:32.999Z</time></trkpt><trkpt lat="49.01066936238254" lon="2.490005855311557"><ele>102.6</ele><time>2026-03-30T16:45:33.999Z</time></trkpt><trkpt lat="49.01067808273059" lon="2.4898235264991873"><ele>102.4</ele><time>2026-03-30T16:45:34.999Z</time></trkpt><trkpt lat="49.010730471314815" lon="2.4896812353142344"><ele>102.19999999999999</ele><time>2026-03-30T16:45:35.999Z</time></trkpt><trkpt lat="49.01076571086335" lon="2.4895474810204252"><ele>102.0</ele><time>2026-03-30T16:45:36.999Z</time></trkpt><trkpt lat="49.01080394913269" lon="2.48942604059804"><ele>101.83333333333333</ele><time>2026-03-30T16:45:37.999Z</time></trkpt><trkpt lat="49.0108434041061" lon="2.489319827462466"><ele>101.66666666666666</ele><time>2026-03-30T16:45:38.999Z</time></trkpt><trkpt lat="49.01088254725962" lon="2.4892068513927668"><ele>101.5</ele><time>2026-03-30T16:45:39.999Z</time></trkpt><trkpt lat="49.01097283685104" lon="2.4891627874584557"><ele>101.33333333333333</ele><time>2026-03-30T16:45:40.999Z</time></trkpt><trkpt lat="49.011048661088516" lon="2.489090241230335"><ele>101.16666666666666</ele><time>2026-03-30T16:45:41.999Z</time></trkpt><trkpt lat="49.01110121491039" lon="2.488984866460193"><ele>101.0</ele><time>2026-03-30T16:45:42.999Z</time></trkpt><trkpt lat="49.01114280379069" lon="2.4888621947766145"><ele>100.8</ele><time>2026-03-30T16:45:43.999Z</time></trkpt><trkpt lat="49.01115438761118" lon="2.4887210523086614"><ele>100.6</ele><time>2026-03-30T16:45:44.999Z</time></trkpt><trkpt lat="49.01114404206802" lon="2.488584347182247"><ele>100.4</ele><time>2026-03-30T16:45:45.999Z</time></trkpt><trkpt lat="49.01110538127271" lon="2.4884590818854164"><ele>100.2</ele><time>2026-03-30T16:45:46.999Z</time></trkpt><trkpt lat="49.011045438966455" lon="2.4883556007060235"><ele>100.0</ele><time>2026-03-30T16:45:47.999Z</time></trkpt><trkpt lat="49.010975324132225" lon="2.488272940698103"><ele>100.00000000000001</ele><time>2026-03-30T16:45:48.999Z</time></trkpt><trkpt lat="49.010898085537" lon="2.488214656810691"><ele>100.0</ele><time>2026-03-30T16:45:49.999Z</time></trkpt><trkpt lat="49.01084137236634" lon="2.4881286252394204"><ele>100.0</ele><time>2026-03-30T16:45:50.999Z</time></trkpt><trkpt lat="49.01081402816702" lon="2.4880220202839656"><ele>100.0</ele><time>2026-03-30T16:45:51.999Z</time></trkpt><trkpt lat="49.010807727692786" lon="2.4879064408971217"><ele>100.00000000000001</ele><time>2026-03-30T16:45:52.999Z</time></trkpt><trkpt lat="49.010803515357765" lon="2.487794631357203"><ele>100.0</ele><time>2026-03-30T16:45:53.999Z</time></trkpt><trkpt lat="49.01080541953285" lon="2.487674374566233"><ele>100.00000000000001</ele><time>2026-03-30T16:45:54.999Z</time></trkpt><trkpt lat="49.01081295912293" lon="2.4875552172367086"><ele>100.0</ele><time>2026-03-30T16:45:55.999Z</time></trkpt><trkpt lat="49.01082319095213" lon="2.487452372807369"><ele>100.0</ele><time>2026-03-30T16:45:56.999Z</time></trkpt><trkpt lat="49.01082971395171" lon="2.4873545330807385"><ele>100.0</ele><time>2026-03-30T16:45:57.999Z</time></trkpt><trkpt lat="49.010832837954815" lon="2.4872509416475026"><ele>100.0</ele><time>2026-03-30T16:45:58.999Z</time></trkpt><trkpt lat="49.0108345642545" lon="2.487145024481169"><ele>100.00000000000001</ele><time>2026-03-30T16:45:59.999Z</time></trkpt><trkpt lat="49.01084477414967" lon="2.4870365250431616"><ele>100.0</ele><time>2026-03-30T16:46:00.999Z</time></trkpt><trkpt lat="49.01085454405746" lon="2.486935724500945"><ele>99.50000000000001</ele><time>2026-03-30T16:46:01.999Z</time></trkpt><trkpt lat="49.010864133234755" lon="2.4868386191359466"><ele>99.0</ele><time>2026-03-30T16:46:02.998Z</time></trkpt><trkpt lat="49.010879114757174" lon="2.486677228174014"><ele>98.5</ele><time>2026-03-30T16:46:04.998Z</time></trkpt><trkpt lat="49.01088677104607" lon="2.4864901743108727"><ele>98.0</ele><time>2026-03-30T16:46:06.998Z</time></trkpt><trkpt lat="49.010894711974686" lon="2.486364035391101"><ele>97.50000000000001</ele><time>2026-03-30T16:46:07.998Z</time></trkpt><trkpt lat="49.01091162500051" lon="2.4862582795225574"><ele>97.0</ele><time>2026-03-30T16:46:08.998Z</time></trkpt><trkpt lat="49.0109209110832" lon="2.486154119557197"><ele>97.0</ele><time>2026-03-30T16:46:09.998Z</time></trkpt><trkpt lat="49.0109398221774" lon="2.4859852394005775"><ele>97.0</ele><time>2026-03-30T16:46:11.998Z</time></trkpt><trkpt lat="49.010967005495715" lon="2.4858161513020747"><ele>97.0</ele><time>2026-03-30T16:46:13.998Z</time></trkpt><trkpt lat="49.01099398660815" lon="2.485590509667369"><ele>97.0</ele><time>2026-03-30T16:46:15.998Z</time></trkpt><trkpt lat="49.0110118530397" lon="2.4854256321765202"><ele>97.0</ele><time>2026-03-30T16:46:16.998Z</time></trkpt><trkpt lat="49.01103686666489" lon="2.485256334931013"><ele>97.0</ele><time>2026-03-30T16:46:17.998Z</time></trkpt><trkpt lat="49.01105841570848" lon="2.485120415941171"><ele>97.0</ele><time>2026-03-30T16:46:18.998Z</time></trkpt><trkpt lat="49.01108243146788" lon="2.4849603844862407"><ele>97.0</ele><time>2026-03-30T16:46:19.998Z</time></trkpt><trkpt lat="49.011104359268096" lon="2.4847840247100232"><ele>97.0</ele><time>2026-03-30T16:46:20.998Z</time></trkpt><trkpt lat="49.01113190496958" lon="2.4846072457196615"><ele>97.0</ele><time>2026-03-30T16:46:21.998Z</time></trkpt><trkpt lat="49.01114872451376" lon="2.48445028068679"><ele>97.0</ele><time>2026-03-30T16:46:22.998Z</time></trkpt><trkpt lat="49.01115628431735" lon="2.4842936925150534"><ele>97.0</ele><time>2026-03-30T16:46:23.998Z</time></trkpt><trkpt lat="49.01117411770182" lon="2.484132644972967"><ele>97.0</ele><time>2026-03-30T16:46:24.998Z</time></trkpt><trkpt lat="49.01118457269676" lon="2.4839946174871743"><ele>97.0</ele><time>2026-03-30T16:46:25.998Z</time></trkpt><trkpt lat="49.011196426070335" lon="2.483853016590765"><ele>97.00000000000001</ele><time>2026-03-30T16:46:26.998Z</time></trkpt><trkpt lat="49.01120803963683" lon="2.4837126037533865"><ele>97.0</ele><time>2026-03-30T16:46:28Z</time></trkpt><trkpt lat="49.011204753813175" lon="2.483587527358131"><ele>97.0</ele><time>2026-03-30T16:46:29Z</time></trkpt><trkpt lat="49.01119741645581" lon="2.483452910924322"><ele>97.0</ele><time>2026-03-30T16:46:30Z</time></trkpt><trkpt lat="49.01120907620113" lon="2.4833234007707436"><ele>97.00000000000001</ele><time>2026-03-30T16:46:31Z</time></trkpt><trkpt lat="49.01121704912564" lon="2.4832075747307156"><ele>97.0</ele><time>2026-03-30T16:46:32Z</time></trkpt><trkpt lat="49.011220886220976" lon="2.4830993948693583"><ele>97.0</ele><time>2026-03-30T16:46:33Z</time></trkpt><trkpt lat="49.011228061400566" lon="2.482989642835857"><ele>97.0</ele><time>2026-03-30T16:46:34Z</time></trkpt><trkpt lat="49.01123500358434" lon="2.4828089728636376"><ele>97.0</ele><time>2026-03-30T16:46:36Z</time></trkpt><trkpt lat="49.01124412230866" lon="2.4826287830829132"><ele>97.0</ele><time>2026-03-30T16:46:38Z</time></trkpt><trkpt lat="49.01125543957225" lon="2.482445096839926"><ele>97.0</ele><time>2026-03-30T16:46:40Z</time></trkpt><trkpt lat="49.011262212523576" lon="2.4822687605696996"><ele>96.83333333333334</ele><time>2026-03-30T16:46:42Z</time></trkpt><trkpt lat="49.011266548386445" lon="2.4821666319887568"><ele>96.66666666666667</ele><time>2026-03-30T16:46:43Z</time></trkpt><trkpt lat="49.01126986209271" lon="2.4820462249568735"><ele>96.5</ele><time>2026-03-30T16:46:44Z</time></trkpt><trkpt lat="49.01127954387419" lon="2.48192896406599"><ele>96.33333333333334</ele><time>2026-03-30T16:46:45Z</time></trkpt><trkpt lat="49.0112899107981" lon="2.48181668689309"><ele>96.16666666666667</ele><time>2026-03-30T16:46:46Z</time></trkpt><trkpt lat="49.0112967135525" lon="2.4816988343179798"><ele>96.0</ele><time>2026-03-30T16:46:47Z</time></trkpt><trkpt lat="49.01130229052217" lon="2.481574592664581"><ele>95.5</ele><time>2026-03-30T16:46:48Z</time></trkpt><trkpt lat="49.01131381879684" lon="2.48144530017099"><ele>95.0</ele><time>2026-03-30T16:46:49Z</time></trkpt><trkpt lat="49.011318814469114" lon="2.481323377929887"><ele>94.5</ele><time>2026-03-30T16:46:50Z</time></trkpt><trkpt lat="49.01132636735867" lon="2.481211305000454"><ele>94.0</ele><time>2026-03-30T16:46:51Z</time></trkpt><trkpt lat="49.01133516225444" lon="2.481096053855794"><ele>93.5</ele><time>2026-03-30T16:46:52Z</time></trkpt><trkpt lat="49.011341918670965" lon="2.4809771805276752"><ele>93.0</ele><time>2026-03-30T16:46:53Z</time></trkpt><trkpt lat="49.011345374653175" lon="2.4808678000296416"><ele>93.0</ele><time>2026-03-30T16:46:54Z</time></trkpt><trkpt lat="49.01135173218201" lon="2.480757737300463"><ele>93.0</ele><time>2026-03-30T16:46:55Z</time></trkpt><trkpt lat="49.011361855621864" lon="2.4806463665013583"><ele>93.0</ele><time>2026-03-30T16:46:56Z</time></trkpt><trkpt lat="49.011370884636825" lon="2.4805323649153004"><ele>93.0</ele><time>2026-03-30T16:46:57Z</time></trkpt><trkpt lat="49.0113817582399" lon="2.4804110092551626"><ele>93.0</ele><time>2026-03-30T16:46:58Z</time></trkpt><trkpt lat="49.01139707938958" lon="2.4802768334722023"><ele>93.0</ele><time>2026-03-30T16:46:59Z</time></trkpt><trkpt lat="49.01141568587277" lon="2.4801298468720288"><ele>92.80000000000001</ele><time>2026-03-30T16:47:00Z</time></trkpt><trkpt lat="49.01142847442337" lon="2.4799694281506413"><ele>92.6</ele><time>2026-03-30T16:47:01Z</time></trkpt><trkpt lat="49.0114363578184" lon="2.4798160217834786"><ele>92.4</ele><time>2026-03-30T16:47:02Z</time></trkpt><trkpt lat="49.0114512609545" lon="2.4796693217702983"><ele>92.19999999999999</ele><time>2026-03-30T16:47:03Z</time></trkpt><trkpt lat="49.01146536736669" lon="2.4795234948180394"><ele>92.0</ele><time>2026-03-30T16:47:04Z</time></trkpt><trkpt lat="49.0114793953018" lon="2.4793745673325067"><ele>91.8</ele><time>2026-03-30T16:47:05Z</time></trkpt><trkpt lat="49.011493757849564" lon="2.4792264809683795"><ele>91.6</ele><time>2026-03-30T16:47:06Z</time></trkpt><trkpt lat="49.01151578409602" lon="2.4790820094203534"><ele>91.39999999999999</ele><time>2026-03-30T16:47:07Z</time></trkpt><trkpt lat="49.01153231162792" lon="2.478938819765374"><ele>91.19999999999999</ele><time>2026-03-30T16:47:08Z</time></trkpt><trkpt lat="49.01155513894686" lon="2.4787877971532972"><ele>91.0</ele><time>2026-03-30T16:47:09Z</time></trkpt><trkpt lat="49.01158409948849" lon="2.4786295771421845"><ele>90.25</ele><time>2026-03-30T16:47:09.999Z</time></trkpt><trkpt lat="49.01161323108756" lon="2.4784610179814557"><ele>89.5</ele><time>2026-03-30T16:47:10.999Z</time></trkpt><trkpt lat="49.01163811907682" lon="2.478283306543148"><ele>88.75</ele><time>2026-03-30T16:47:11.999Z</time></trkpt><trkpt lat="49.01166252206814" lon="2.478111506843516"><ele>88.0</ele><time>2026-03-30T16:47:12.999Z</time></trkpt><trkpt lat="49.01168897290752" lon="2.47794249184407"><ele>87.75</ele><time>2026-03-30T16:47:13.999Z</time></trkpt><trkpt lat="49.011722889136195" lon="2.4777728251718485"><ele>87.5</ele><time>2026-03-30T16:47:14.999Z</time></trkpt><trkpt lat="49.011764068009114" lon="2.477603638825863"><ele>87.25</ele><time>2026-03-30T16:47:15.999Z</time></trkpt><trkpt lat="49.011801048396904" lon="2.477432935350944"><ele>87.0</ele><time>2026-03-30T16:47:16.999Z</time></trkpt><trkpt lat="49.01184510150164" lon="2.4772747462659876"><ele>87.0</ele><time>2026-03-30T16:47:17.999Z</time></trkpt><trkpt lat="49.01189302894356" lon="2.4771180017623307"><ele>87.0</ele><time>2026-03-30T16:47:18.999Z</time></trkpt><trkpt lat="49.01194409634615" lon="2.476956426980739"><ele>87.0</ele><time>2026-03-30T16:47:19.999Z</time></trkpt><trkpt lat="49.011993108559686" lon="2.4767878133812617"><ele>87.0</ele><time>2026-03-30T16:47:20.999Z</time></trkpt><trkpt lat="49.01203790183632" lon="2.476618866125551"><ele>87.0</ele><time>2026-03-30T16:47:21.999Z</time></trkpt><trkpt lat="49.01208044059724" lon="2.4764482748642744"><ele>87.0</ele><time>2026-03-30T16:47:22.999Z</time></trkpt><trkpt lat="49.01211800242217" lon="2.4762788863838625"><ele>87.0</ele><time>2026-03-30T16:47:23.999Z</time></trkpt><trkpt lat="49.0121547099753" lon="2.4761035221250847"><ele>87.0</ele><time>2026-03-30T16:47:24.999Z</time></trkpt><trkpt lat="49.01219315696982" lon="2.4759223583218044"><ele>86.5</ele><time>2026-03-30T16:47:25.999Z</time></trkpt><trkpt lat="49.0122237756418" lon="2.4757338100861017"><ele>86.0</ele><time>2026-03-30T16:47:26.999Z</time></trkpt><trkpt lat="49.01225182794132" lon="2.4755455030854105"><ele>85.5</ele><time>2026-03-30T16:47:27.999Z</time></trkpt><trkpt lat="49.01226766614482" lon="2.475359228346938"><ele>85.0</ele><time>2026-03-30T16:47:28.999Z</time></trkpt><trkpt lat="49.01228466472754" lon="2.4751722643223446"><ele>84.0</ele><time>2026-03-30T16:47:29.999Z</time></trkpt><trkpt lat="49.01230447911022" lon="2.4749826672655413"><ele>83.0</ele><time>2026-03-30T16:47:30.999Z</time></trkpt><trkpt lat="49.01232337601356" lon="2.4747926625055485"><ele>82.0</ele><time>2026-03-30T16:47:31.999Z</time></trkpt><trkpt lat="49.01234305095752" lon="2.474597323164689"><ele>81.0</ele><time>2026-03-30T16:47:32.999Z</time></trkpt><trkpt lat="49.012351543837504" lon="2.4743978108251423"><ele>80.8</ele><time>2026-03-30T16:47:33.999Z</time></trkpt><trkpt lat="49.01236017899505" lon="2.474201225065138"><ele>80.6</ele><time>2026-03-30T16:47:34.999Z</time></trkpt><trkpt lat="49.01237101585409" lon="2.474010915880258"><ele>80.4</ele><time>2026-03-30T16:47:35.999Z</time></trkpt><trkpt lat="49.01237763086937" lon="2.4738531290917654"><ele>80.2</ele><time>2026-03-30T16:47:36.999Z</time></trkpt><trkpt lat="49.0123850048047" lon="2.4737364030971327"><ele>80.0</ele><time>2026-03-30T16:47:37.999Z</time></trkpt><trkpt lat="49.012390633185085" lon="2.473625570529491"><ele>79.33333333333334</ele><time>2026-03-30T16:47:38.999Z</time></trkpt><trkpt lat="49.01239998772471" lon="2.473509742538019"><ele>78.66666666666667</ele><time>2026-03-30T16:47:39.999Z</time></trkpt><trkpt lat="49.01241024329249" lon="2.4733892481301343"><ele>78.0</ele><time>2026-03-30T16:47:40.999Z</time></trkpt><trkpt lat="49.01242295871257" lon="2.473265603483767"><ele>77.33333333333333</ele><time>2026-03-30T16:47:41.999Z</time></trkpt><trkpt lat="49.01244067018522" lon="2.4731384819135243"><ele>76.66666666666666</ele><time>2026-03-30T16:47:42.999Z</time></trkpt><trkpt lat="49.01245772880442" lon="2.473000635736055"><ele>76.0</ele><time>2026-03-30T16:47:43.999Z</time></trkpt><trkpt lat="49.012473808194585" lon="2.4728480599923977"><ele>74.0</ele><time>2026-03-30T16:47:44.999Z</time></trkpt><trkpt lat="49.01249834372167" lon="2.4726907978625094"><ele>72.0</ele><time>2026-03-30T16:47:45.999Z</time></trkpt><trkpt lat="49.012525811695845" lon="2.4725282922935636"><ele>70.0</ele><time>2026-03-30T16:47:46.999Z</time></trkpt><trkpt lat="49.01255078940269" lon="2.4723653854823957"><ele>68.0</ele><time>2026-03-30T16:47:47.999Z</time></trkpt><trkpt lat="49.012568077550945" lon="2.472201780004194"><ele>66.0</ele><time>2026-03-30T16:47:48.999Z</time></trkpt><trkpt lat="49.01257435742394" lon="2.4720356614472925"><ele>65.16666666666667</ele><time>2026-03-30T16:47:49.999Z</time></trkpt><trkpt lat="49.012594126727905" lon="2.4718945298245654"><ele>64.33333333333333</ele><time>2026-03-30T16:47:50.999Z</time></trkpt><trkpt lat="49.0126194115139" lon="2.4717839500714476"><ele>63.5</ele><time>2026-03-30T16:47:51.999Z</time></trkpt><trkpt lat="49.012663316030526" lon="2.4717089958819445"><ele>62.666666666666664</ele><time>2026-03-30T16:47:52.999Z</time></trkpt><trkpt lat="49.01272327059067" lon="2.47166046918477"><ele>61.83333333333333</ele><time>2026-03-30T16:47:53.999Z</time></trkpt><trkpt lat="49.01280398364708" lon="2.4716103944188474"><ele>61.0</ele><time>2026-03-30T16:47:54.999Z</time></trkpt><trkpt lat="49.0129196222598" lon="2.4716298740405604"><ele>61.0</ele><time>2026-03-30T16:47:55.999Z</time></trkpt><trkpt lat="49.01301440347472" lon="2.4716123161954138"><ele>60.99999999999999</ele><time>2026-03-30T16:47:56.999Z</time></trkpt><trkpt lat="49.01309479715767" lon="2.4715248772806513"><ele>60.99999999999999</ele><time>2026-03-30T16:47:57.999Z</time></trkpt><trkpt lat="49.01316095471587" lon="2.4714060994846423"><ele>61.0</ele><time>2026-03-30T16:47:58.999Z</time></trkpt><trkpt lat="49.013200090093314" lon="2.4712666982771654"><ele>61.0</ele><time>2026-03-30T16:47:59.999Z</time></trkpt><trkpt lat="49.013217594303214" lon="2.471129695061804"><ele>60.8</ele><time>2026-03-30T16:48:00.999Z</time></trkpt><trkpt lat="49.01317467205513" lon="2.4709817487555368"><ele>60.599999999999994</ele><time>2026-03-30T16:48:01.999Z</time></trkpt><trkpt lat="49.013123598317236" lon="2.47085221806666"><ele>60.4</ele><time>2026-03-30T16:48:02.999Z</time></trkpt><trkpt lat="49.013047894265384" lon="2.470751197869747"><ele>60.2</ele><time>2026-03-30T16:48:03.999Z</time></trkpt><trkpt lat="49.01294630463388" lon="2.4706929289293944"><ele>60.0</ele><time>2026-03-30T16:48:04.999Z</time></trkpt><trkpt lat="49.012839020569054" lon="2.4706812551723742"><ele>60.0</ele><time>2026-03-30T16:48:05.998Z</time></trkpt><trkpt lat="49.01271994333082" lon="2.4705974274117932"><ele>60.0</ele><time>2026-03-30T16:48:06.998Z</time></trkpt><trkpt lat="49.01262698722322" lon="2.4704919649486214"><ele>60.0</ele><time>2026-03-30T16:48:07.998Z</time></trkpt><trkpt lat="49.012515066659184" lon="2.470351515138342"><ele>60.0</ele><time>2026-03-30T16:48:08.998Z</time></trkpt><trkpt lat="49.01237069231584" lon="2.4702106033543534"><ele>59.66666666666667</ele><time>2026-03-30T16:48:09.998Z</time></trkpt><trkpt lat="49.01222585879033" lon="2.470060128205822"><ele>59.333333333333336</ele><time>2026-03-30T16:48:10.998Z</time></trkpt><trkpt lat="49.01207778212538" lon="2.46986331664095"><ele>59.0</ele><time>2026-03-30T16:48:11.998Z</time></trkpt><trkpt lat="49.011928544147985" lon="2.469657911071139"><ele>58.66666666666667</ele><time>2026-03-30T16:48:12.998Z</time></trkpt><trkpt lat="49.01179500451014" lon="2.46946435786127"><ele>58.33333333333333</ele><time>2026-03-30T16:48:13.998Z</time></trkpt><trkpt lat="49.01166570660599" lon="2.4693002905313426"><ele>58.0</ele><time>2026-03-30T16:48:14.998Z</time></trkpt><trkpt lat="49.011531158471435" lon="2.4691443618780005"><ele>57.33333333333333</ele><time>2026-03-30T16:48:15.998Z</time></trkpt><trkpt lat="49.01139852615392" lon="2.468968573109272"><ele>56.66666666666667</ele><time>2026-03-30T16:48:16.998Z</time></trkpt><trkpt lat="49.01126467046745" lon="2.4687964033831125"><ele>56.0</ele><time>2026-03-30T16:48:17.998Z</time></trkpt><trkpt lat="49.01112458349252" lon="2.468621901455238"><ele>55.66666666666667</ele><time>2026-03-30T16:48:18.998Z</time></trkpt><trkpt lat="49.0109925353605" lon="2.4684451482945238"><ele>55.33333333333333</ele><time>2026-03-30T16:48:19.998Z</time></trkpt><trkpt lat="49.010864196550884" lon="2.4682558522209583"><ele>55.0</ele><time>2026-03-30T16:48:20.998Z</time></trkpt><trkpt lat="49.010734319023285" lon="2.468081482326929"><ele>56.0</ele><time>2026-03-30T16:48:21.998Z</time></trkpt><trkpt lat="49.01059761067088" lon="2.4679102247531475"><ele>57.0</ele><time>2026-03-30T16:48:22.998Z</time></trkpt><trkpt lat="49.01046728447083" lon="2.467735317379873"><ele>58.0</ele><time>2026-03-30T16:48:23.998Z</time></trkpt><trkpt lat="49.01033940991107" lon="2.467559706300521"><ele>58.0</ele><time>2026-03-30T16:48:24.998Z</time></trkpt><trkpt lat="49.010205338490465" lon="2.467376730543541"><ele>58.0</ele><time>2026-03-30T16:48:25.998Z</time></trkpt><trkpt lat="49.01006813649125" lon="2.4672001231101004"><ele>58.0</ele><time>2026-03-30T16:48:26.998Z</time></trkpt><trkpt lat="49.00993045185668" lon="2.4670120943689677"><ele>58.33333333333333</ele><time>2026-03-30T16:48:27.998Z</time></trkpt><trkpt lat="49.00979222289255" lon="2.466827929530436"><ele>58.66666666666667</ele><time>2026-03-30T16:48:28.998Z</time></trkpt><trkpt lat="49.009661490484156" lon="2.466653793202474"><ele>59.0</ele><time>2026-03-30T16:48:29.998Z</time></trkpt><trkpt lat="49.00953542261977" lon="2.4664833863817295"><ele>59.0</ele><time>2026-03-30T16:48:30.998Z</time></trkpt><trkpt lat="49.00941973853002" lon="2.4663088801485493"><ele>59.0</ele><time>2026-03-30T16:48:31.998Z</time></trkpt><trkpt lat="49.00930613073861" lon="2.466146535865228"><ele>59.0</ele><time>2026-03-30T16:48:32.998Z</time></trkpt><trkpt lat="49.00919655645254" lon="2.4659883846861543"><ele>59.5</ele><time>2026-03-30T16:48:34Z</time></trkpt><trkpt lat="49.00909448856612" lon="2.465834835229366"><ele>60.0</ele><time>2026-03-30T16:48:35Z</time></trkpt><trkpt lat="49.00898874372566" lon="2.4656922585613947"><ele>60.5</ele><time>2026-03-30T16:48:36Z</time></trkpt><trkpt lat="49.008889628108314" lon="2.465557050025688"><ele>61.0</ele><time>2026-03-30T16:48:37Z</time></trkpt><trkpt lat="49.00880198861015" lon="2.465420010555735"><ele>61.4</ele><time>2026-03-30T16:48:38Z</time></trkpt><trkpt lat="49.00871014144981" lon="2.4653135091370775"><ele>61.8</ele><time>2026-03-30T16:48:39Z</time></trkpt><trkpt lat="49.008624976270355" lon="2.4652143827991044"><ele>62.199999999999996</ele><time>2026-03-30T16:48:40Z</time></trkpt><trkpt lat="49.008541523695804" lon="2.465138510060492"><ele>62.599999999999994</ele><time>2026-03-30T16:48:41Z</time></trkpt><trkpt lat="49.008487444343785" lon="2.465037096751365"><ele>63.0</ele><time>2026-03-30T16:48:42Z</time></trkpt><trkpt lat="49.008461739624444" lon="2.4649001286925234"><ele>63.0</ele><time>2026-03-30T16:48:43Z</time></trkpt><trkpt lat="49.00839870783548" lon="2.4647799764641802"><ele>63.0</ele><time>2026-03-30T16:48:44Z</time></trkpt><trkpt lat="49.008289284322885" lon="2.4647504104111553"><ele>63.0</ele><time>2026-03-30T16:48:45Z</time></trkpt><trkpt lat="49.00818944110428" lon="2.4647471158784464"><ele>63.0</ele><time>2026-03-30T16:48:46Z</time></trkpt><trkpt lat="49.00808956136223" lon="2.464712170271217"><ele>63.0</ele><time>2026-03-30T16:48:47Z</time></trkpt><trkpt lat="49.00799295767539" lon="2.4646342718930883"><ele>64.0</ele><time>2026-03-30T16:48:48Z</time></trkpt><trkpt lat="49.00788353929701" lon="2.464546183359677"><ele>65.0</ele><time>2026-03-30T16:48:49Z</time></trkpt><trkpt lat="49.00775701264193" lon="2.4644549838082903"><ele>66.0</ele><time>2026-03-30T16:48:50Z</time></trkpt><trkpt lat="49.00761060370896" lon="2.464360728284181"><ele>67.0</ele><time>2026-03-30T16:48:51Z</time></trkpt><trkpt lat="49.007442890620716" lon="2.4642587038024657"><ele>67.66666666666666</ele><time>2026-03-30T16:48:52Z</time></trkpt><trkpt lat="49.007268501754254" lon="2.464164123223461"><ele>68.33333333333333</ele><time>2026-03-30T16:48:53Z</time></trkpt><trkpt lat="49.00710809021673" lon="2.4640905699630777"><ele>69.0</ele><time>2026-03-30T16:48:54Z</time></trkpt><trkpt lat="49.00694951796678" lon="2.4640330839629114"><ele>69.0</ele><time>2026-03-30T16:48:55Z</time></trkpt><trkpt lat="49.00679087829492" lon="2.463989538648053"><ele>69.0</ele><time>2026-03-30T16:48:56Z</time></trkpt><trkpt lat="49.006626904142514" lon="2.463948685198914"><ele>69.0</ele><time>2026-03-30T16:48:57Z</time></trkpt><trkpt lat="49.00646901987615" lon="2.463921753125105"><ele>69.33333333333333</ele><time>2026-03-30T16:48:58Z</time></trkpt><trkpt lat="49.006310381919526" lon="2.463903596132755"><ele>69.66666666666666</ele><time>2026-03-30T16:48:59Z</time></trkpt><trkpt lat="49.00615254538886" lon="2.4639004862411724"><ele>70.0</ele><time>2026-03-30T16:49:00Z</time></trkpt><trkpt lat="49.00599336808815" lon="2.463878458430634"><ele>70.0</ele><time>2026-03-30T16:49:01Z</time></trkpt><trkpt lat="49.005829935264806" lon="2.4638771193074964"><ele>70.0</ele><time>2026-03-30T16:49:02Z</time></trkpt><trkpt lat="49.005663131229376" lon="2.4638852569287075"><ele>70.0</ele><time>2026-03-30T16:49:03Z</time></trkpt><trkpt lat="49.00550017493261" lon="2.463927682747857"><ele>70.33333333333333</ele><time>2026-03-30T16:49:04Z</time></trkpt><trkpt lat="49.00533639294109" lon="2.4639297075463986"><ele>70.66666666666667</ele><time>2026-03-30T16:49:05Z</time></trkpt><trkpt lat="49.005173597176174" lon="2.463955324998588"><ele>71.0</ele><time>2026-03-30T16:49:06Z</time></trkpt><trkpt lat="49.005015796067326" lon="2.463980156418403"><ele>71.33333333333334</ele><time>2026-03-30T16:49:07Z</time></trkpt><trkpt lat="49.0048609079367" lon="2.4640267994143494"><ele>71.66666666666667</ele><time>2026-03-30T16:49:08Z</time></trkpt><trkpt lat="49.00470379598562" lon="2.4640408286211732"><ele>72.0</ele><time>2026-03-30T16:49:09Z</time></trkpt><trkpt lat="49.00453803750411" lon="2.464060445632344"><ele>72.0</ele><time>2026-03-30T16:49:10Z</time></trkpt><trkpt lat="49.004343067987065" lon="2.4641014024256322"><ele>72.0</ele><time>2026-03-30T16:49:11Z</time></trkpt><trkpt lat="49.004136889171996" lon="2.4641440348260755"><ele>72.0</ele><time>2026-03-30T16:49:12Z</time></trkpt><trkpt lat="49.0039481319905" lon="2.464156110534143"><ele>72.33333333333333</ele><time>2026-03-30T16:49:12.999Z</time></trkpt><trkpt lat="49.00375977694056" lon="2.464160833498686"><ele>72.66666666666666</ele><time>2026-03-30T16:49:13.999Z</time></trkpt><trkpt lat="49.003558393086614" lon="2.4641759893285933"><ele>73.0</ele><time>2026-03-30T16:49:14.999Z</time></trkpt><trkpt lat="49.00336146295075" lon="2.4642265886233434"><ele>73.66666666666666</ele><time>2026-03-30T16:49:15.999Z</time></trkpt><trkpt lat="49.00316185262" lon="2.4642721839840642"><ele>74.33333333333333</ele><time>2026-03-30T16:49:16.999Z</time></trkpt><trkpt lat="49.00295715380148" lon="2.4643053028031465"><ele>75.0</ele><time>2026-03-30T16:49:17.999Z</time></trkpt><trkpt lat="49.00275048138419" lon="2.4643423443782124"><ele>75.0</ele><time>2026-03-30T16:49:18.999Z</time></trkpt><trkpt lat="49.002539126943255" lon="2.4643791876807994"><ele>75.0</ele><time>2026-03-30T16:49:19.999Z</time></trkpt><trkpt lat="49.0023248279928" lon="2.4644061524066885"><ele>75.0</ele><time>2026-03-30T16:49:20.999Z</time></trkpt><trkpt lat="49.00211267116023" lon="2.464438317768469"><ele>75.33333333333333</ele><time>2026-03-30T16:49:21.999Z</time></trkpt><trkpt lat="49.00190275832988" lon="2.464470075919324"><ele>75.66666666666666</ele><time>2026-03-30T16:49:22.999Z</time></trkpt><trkpt lat="49.00170039479604" lon="2.464507337550628"><ele>76.0</ele><time>2026-03-30T16:49:23.999Z</time></trkpt><trkpt lat="49.00152055965231" lon="2.464528812972923"><ele>76.33333333333333</ele><time>2026-03-30T16:49:24.999Z</time></trkpt><trkpt lat="49.001360695518144" lon="2.4645545710935712"><ele>76.66666666666667</ele><time>2026-03-30T16:49:25.999Z</time></trkpt><trkpt lat="49.001208176985045" lon="2.464582628020112"><ele>77.0</ele><time>2026-03-30T16:49:26.999Z</time></trkpt><trkpt lat="49.001066904360584" lon="2.4646048990842053"><ele>76.75</ele><time>2026-03-30T16:49:27.999Z</time></trkpt><trkpt lat="49.00092894234603" lon="2.464627730201634"><ele>76.5</ele><time>2026-03-30T16:49:28.999Z</time></trkpt><trkpt lat="49.00079175583326" lon="2.4646543312415377"><ele>76.25</ele><time>2026-03-30T16:49:29.999Z</time></trkpt><trkpt lat="49.00066202400669" lon="2.464677371718598"><ele>76.0</ele><time>2026-03-30T16:49:30.999Z</time></trkpt><trkpt lat="49.000536700182636" lon="2.464697482080168"><ele>76.5</ele><time>2026-03-30T16:49:31.999Z</time></trkpt><trkpt lat="49.000407606529336" lon="2.464715787739605"><ele>77.0</ele><time>2026-03-30T16:49:32.999Z</time></trkpt><trkpt lat="49.00027701994594" lon="2.464735443286088"><ele>77.5</ele><time>2026-03-30T16:49:33.999Z</time></trkpt><trkpt lat="49.00014351907974" lon="2.464762496147676"><ele>78.0</ele><time>2026-03-30T16:49:34.999Z</time></trkpt><trkpt lat="48.999999745494776" lon="2.4647655744771417"><ele>78.0</ele><time>2026-03-30T16:49:35.999Z</time></trkpt><trkpt lat="48.99986331241003" lon="2.4647754126296513"><ele>78.0</ele><time>2026-03-30T16:49:36.999Z</time></trkpt><trkpt lat="48.999728215664604" lon="2.464769531272582"><ele>78.0</ele><time>2026-03-30T16:49:37.999Z</time></trkpt><trkpt lat="48.99958866638363" lon="2.464756900745405"><ele>78.0</ele><time>2026-03-30T16:49:38.999Z</time></trkpt><trkpt lat="48.999441361357775" lon="2.464734611508208"><ele>78.0</ele><time>2026-03-30T16:49:39.999Z</time></trkpt><trkpt lat="48.99928244021244" lon="2.4647053998310025"><ele>78.0</ele><time>2026-03-30T16:49:40.999Z</time></trkpt><trkpt lat="48.99913651773698" lon="2.4646602297857765"><ele>78.0</ele><time>2026-03-30T16:49:41.999Z</time></trkpt><trkpt lat="48.99898981660889" lon="2.464616857304915"><ele>77.75</ele><time>2026-03-30T16:49:42.999Z</time></trkpt><trkpt lat="48.998846098107" lon="2.4645681048740924"><ele>77.5</ele><time>2026-03-30T16:49:43.999Z</time></trkpt><trkpt lat="48.99870322279996" lon="2.4645048913108174"><ele>77.25</ele><time>2026-03-30T16:49:44.999Z</time></trkpt><trkpt lat="48.99856504337744" lon="2.464418376691429"><ele>77.0</ele><time>2026-03-30T16:49:45.999Z</time></trkpt><trkpt lat="48.99842453594716" lon="2.46432594910078"><ele>75.66666666666667</ele><time>2026-03-30T16:49:46.999Z</time></trkpt><trkpt lat="48.998281261786055" lon="2.4642207336838875"><ele>74.33333333333333</ele><time>2026-03-30T16:49:47.999Z</time></trkpt><trkpt lat="48.99813782884875" lon="2.46410573268058"><ele>73.0</ele><time>2026-03-30T16:49:48.999Z</time></trkpt><trkpt lat="48.99799098666671" lon="2.463989944892546"><ele>73.0</ele><time>2026-03-30T16:49:49.999Z</time></trkpt><trkpt lat="48.997825656682615" lon="2.463864310255465"><ele>73.0</ele><time>2026-03-30T16:49:50.999Z</time></trkpt><trkpt lat="48.99767070435665" lon="2.463676083552233"><ele>73.0</ele><time>2026-03-30T16:49:51.999Z</time></trkpt><trkpt lat="48.99751835854262" lon="2.463482837516622"><ele>73.33333333333333</ele><time>2026-03-30T16:49:52.999Z</time></trkpt><trkpt lat="48.997362976040264" lon="2.4632758799841064"><ele>73.66666666666667</ele><time>2026-03-30T16:49:53.999Z</time></trkpt><trkpt lat="48.99721210901628" lon="2.463051705490179"><ele>74.0</ele><time>2026-03-30T16:49:54.999Z</time></trkpt><trkpt lat="48.99707218337234" lon="2.4628144650336106"><ele>74.66666666666667</ele><time>2026-03-30T16:49:55.999Z</time></trkpt><trkpt lat="48.99692788246717" lon="2.4625728961557134"><ele>75.33333333333333</ele><time>2026-03-30T16:49:56.999Z</time></trkpt><trkpt lat="48.99677777810631" lon="2.4623447798247913"><ele>76.0</ele><time>2026-03-30T16:49:57.999Z</time></trkpt><trkpt lat="48.99663795071638" lon="2.4621065049873603"><ele>76.0</ele><time>2026-03-30T16:49:58.999Z</time></trkpt><trkpt lat="48.996495741824155" lon="2.4618621451288805"><ele>76.0</ele><time>2026-03-30T16:49:59.999Z</time></trkpt><trkpt lat="48.996357662151674" lon="2.4616092633715696"><ele>76.0</ele><time>2026-03-30T16:50:00.999Z</time></trkpt><trkpt lat="48.99622904420924" lon="2.4613428318545907"><ele>76.66666666666666</ele><time>2026-03-30T16:50:01.999Z</time></trkpt><trkpt lat="48.99610776029047" lon="2.461074076325963"><ele>77.33333333333333</ele><time>2026-03-30T16:50:02.999Z</time></trkpt><trkpt lat="48.99599593928581" lon="2.4607976021851568"><ele>78.0</ele><time>2026-03-30T16:50:03.999Z</time></trkpt><trkpt lat="48.99589251004513" lon="2.4605115509460727"><ele>78.0</ele><time>2026-03-30T16:50:04.999Z</time></trkpt><trkpt lat="48.99579610728956" lon="2.4602198762385328"><ele>78.0</ele><time>2026-03-30T16:50:05.999Z</time></trkpt><trkpt lat="48.995705406641726" lon="2.459926243406162"><ele>78.0</ele><time>2026-03-30T16:50:06.999Z</time></trkpt><trkpt lat="48.995615486037764" lon="2.4596332377845833"><ele>78.33333333333333</ele><time>2026-03-30T16:50:07.998Z</time></trkpt><trkpt lat="48.99553493280789" lon="2.4593547063138943"><ele>78.66666666666666</ele><time>2026-03-30T16:50:08.998Z</time></trkpt><trkpt lat="48.99544163663117" lon="2.4590753999544077"><ele>79.0</ele><time>2026-03-30T16:50:09.998Z</time></trkpt><trkpt lat="48.995347287771715" lon="2.458798542786052"><ele>78.66666666666666</ele><time>2026-03-30T16:50:10.998Z</time></trkpt><trkpt lat="48.99524810417479" lon="2.4585265821921904"><ele>78.33333333333333</ele><time>2026-03-30T16:50:11.998Z</time></trkpt><trkpt lat="48.99514288605217" lon="2.458277898967035"><ele>78.0</ele><time>2026-03-30T16:50:12.998Z</time></trkpt><trkpt lat="48.995042008183546" lon="2.4580484673635303"><ele>77.33333333333333</ele><time>2026-03-30T16:50:13.998Z</time></trkpt><trkpt lat="48.99494018857416" lon="2.457830601407964"><ele>76.66666666666666</ele><time>2026-03-30T16:50:14.998Z</time></trkpt><trkpt lat="48.99483684608321" lon="2.4576131590734764"><ele>76.0</ele><time>2026-03-30T16:50:15.998Z</time></trkpt><trkpt lat="48.994721860955224" lon="2.457403586494766"><ele>76.0</ele><time>2026-03-30T16:50:16.998Z</time></trkpt><trkpt lat="48.99460062931256" lon="2.4572095656889767"><ele>76.0</ele><time>2026-03-30T16:50:17.998Z</time></trkpt><trkpt lat="48.99448165832944" lon="2.457029672157239"><ele>76.0</ele><time>2026-03-30T16:50:18.998Z</time></trkpt><trkpt lat="48.994369106799425" lon="2.4568650152075255"><ele>76.0</ele><time>2026-03-30T16:50:19.998Z</time></trkpt><trkpt lat="48.99425810931365" lon="2.4567004742180245"><ele>76.0</ele><time>2026-03-30T16:50:20.998Z</time></trkpt><trkpt lat="48.99414583753664" lon="2.4565372922322233"><ele>76.0</ele><time>2026-03-30T16:50:21.998Z</time></trkpt><trkpt lat="48.994036006767566" lon="2.456383482070866"><ele>76.25</ele><time>2026-03-30T16:50:22.998Z</time></trkpt><trkpt lat="48.99392978382288" lon="2.456233415954336"><ele>76.5</ele><time>2026-03-30T16:50:23.998Z</time></trkpt><trkpt lat="48.993828751441335" lon="2.456087606322265"><ele>76.75</ele><time>2026-03-30T16:50:24.998Z</time></trkpt><trkpt lat="48.993728807099906" lon="2.455945188857034"><ele>77.0</ele><time>2026-03-30T16:50:25.998Z</time></trkpt><trkpt lat="48.99364139445328" lon="2.455824760852631"><ele>77.0</ele><time>2026-03-30T16:50:26.998Z</time></trkpt><trkpt lat="48.99356704916459" lon="2.4557167686050203"><ele>77.0</ele><time>2026-03-30T16:50:27.998Z</time></trkpt><trkpt lat="48.9935086388188" lon="2.455622157400704"><ele>77.0</ele><time>2026-03-30T16:50:28.998Z</time></trkpt><trkpt lat="48.99345409569557" lon="2.45554179670818"><ele>77.0</ele><time>2026-03-30T16:50:29.998Z</time></trkpt><trkpt lat="48.99340603174684" lon="2.455471189384542"><ele>77.0</ele><time>2026-03-30T16:50:30.998Z</time></trkpt><trkpt lat="48.993327616422796" lon="2.4553692686590716"><ele>77.0</ele><time>2026-03-30T16:50:32.998Z</time></trkpt><trkpt lat="48.993266303805896" lon="2.4553229515382355"><ele>76.2</ele><time>2026-03-30T16:50:48Z</time></trkpt><trkpt lat="48.99321540467878" lon="2.4552493636489725"><ele>75.4</ele><time>2026-03-30T16:50:51Z</time></trkpt><trkpt lat="48.9931603649631" lon="2.455149270717663"><ele>74.6</ele><time>2026-03-30T16:50:57Z</time></trkpt><trkpt lat="48.99313766248862" lon="2.455028524443801"><ele>73.8</ele><time>2026-03-30T16:50:59Z</time></trkpt><trkpt lat="48.99317574589897" lon="2.4548159658627524"><ele>73.0</ele><time>2026-03-30T16:51:01Z</time></trkpt><trkpt lat="48.99320818477162" lon="2.4547072769916047"><ele>73.0</ele><time>2026-03-30T16:51:02Z</time></trkpt><trkpt lat="48.9932637060472" lon="2.454590620232746"><ele>73.0</ele><time>2026-03-30T16:51:03Z</time></trkpt><trkpt lat="48.993332708622326" lon="2.4544635188499826"><ele>73.0</ele><time>2026-03-30T16:51:04Z</time></trkpt><trkpt lat="48.9934035451403" lon="2.4543403650215825"><ele>73.0</ele><time>2026-03-30T16:51:05Z</time></trkpt><trkpt lat="48.99348462966203" lon="2.454195941654389"><ele>73.0</ele><time>2026-03-30T16:51:06Z</time></trkpt><trkpt lat="48.993573940856386" lon="2.4540373289732846"><ele>73.0</ele><time>2026-03-30T16:51:07Z</time></trkpt><trkpt lat="48.99365746792517" lon="2.45389024425143"><ele>73.0</ele><time>2026-03-30T16:51:08Z</time></trkpt><trkpt lat="48.99373483617051" lon="2.453757784458135"><ele>73.0</ele><time>2026-03-30T16:51:09Z</time></trkpt><trkpt lat="48.993813868264574" lon="2.4536198249868093"><ele>73.0</ele><time>2026-03-30T16:51:10Z</time></trkpt><trkpt lat="48.99389931243195" lon="2.453474134255348"><ele>72.75</ele><time>2026-03-30T16:51:11Z</time></trkpt><trkpt lat="48.99398246532572" lon="2.4533276756903994"><ele>72.5</ele><time>2026-03-30T16:51:12Z</time></trkpt><trkpt lat="48.99406822024937" lon="2.4531896498324053"><ele>72.25</ele><time>2026-03-30T16:51:13Z</time></trkpt><trkpt lat="48.99415505751376" lon="2.4530551607880873"><ele>72.0</ele><time>2026-03-30T16:51:14Z</time></trkpt><trkpt lat="48.99424285337072" lon="2.452932881779773"><ele>72.0</ele><time>2026-03-30T16:51:15Z</time></trkpt><trkpt lat="48.99433139255242" lon="2.452810883363304"><ele>72.0</ele><time>2026-03-30T16:51:16Z</time></trkpt><trkpt lat="48.994398474102816" lon="2.4526818023432924"><ele>72.0</ele><time>2026-03-30T16:51:17Z</time></trkpt><trkpt lat="48.994468100954485" lon="2.452556249067087"><ele>72.0</ele><time>2026-03-30T16:51:18Z</time></trkpt><trkpt lat="48.99453436949862" lon="2.452433238950753"><ele>72.0</ele><time>2026-03-30T16:51:18.999Z</time></trkpt><trkpt lat="48.99459294455643" lon="2.452313426472329"><ele>72.0</ele><time>2026-03-30T16:51:19.999Z</time></trkpt><trkpt lat="48.99464108815828" lon="2.4521951610876105"><ele>72.0</ele><time>2026-03-30T16:51:20.999Z</time></trkpt><trkpt lat="48.99468198785602" lon="2.4520927297791286"><ele>72.0</ele><time>2026-03-30T16:51:21.999Z</time></trkpt><trkpt lat="48.99473851300013" lon="2.4520095278441913"><ele>72.0</ele><time>2026-03-30T16:51:22.999Z</time></trkpt><trkpt lat="48.99480898297331" lon="2.4519260757228523"><ele>72.0</ele><time>2026-03-30T16:51:23.999Z</time></trkpt><trkpt lat="48.99485236901265" lon="2.4518110385194785"><ele>72.0</ele><time>2026-03-30T16:51:24.999Z</time></trkpt><trkpt lat="48.99486443792662" lon="2.4516550036764944"><ele>71.5</ele><time>2026-03-30T16:51:25.999Z</time></trkpt><trkpt lat="48.99484964733914" lon="2.451488318307707"><ele>71.0</ele><time>2026-03-30T16:51:26.999Z</time></trkpt><trkpt lat="48.99485408557314" lon="2.451324898221142"><ele>70.5</ele><time>2026-03-30T16:51:27.999Z</time></trkpt><trkpt lat="48.99488048892171" lon="2.4511536104543095"><ele>70.0</ele><time>2026-03-30T16:51:28.999Z</time></trkpt><trkpt lat="48.994915359324395" lon="2.4509554453563713"><ele>69.75</ele><time>2026-03-30T16:51:29.999Z</time></trkpt><trkpt lat="48.99494498771082" lon="2.450740876083227"><ele>69.5</ele><time>2026-03-30T16:51:30.999Z</time></trkpt><trkpt lat="48.99497048873605" lon="2.4505192052208677"><ele>69.25</ele><time>2026-03-30T16:51:31.999Z</time></trkpt><trkpt lat="48.99498428707657" lon="2.450304462591834"><ele>69.0</ele><time>2026-03-30T16:51:32.999Z</time></trkpt><trkpt lat="48.9949845102062" lon="2.4501146665054754"><ele>69.0</ele><time>2026-03-30T16:51:33.999Z</time></trkpt><trkpt lat="48.99498119172775" lon="2.4499484694636386"><ele>69.0</ele><time>2026-03-30T16:51:34.999Z</time></trkpt><trkpt lat="48.99497857110792" lon="2.449788020928872"><ele>69.0</ele><time>2026-03-30T16:51:35.999Z</time></trkpt><trkpt lat="48.99497100837845" lon="2.4496219016386096"><ele>69.0</ele><time>2026-03-30T16:51:36.999Z</time></trkpt><trkpt lat="48.99495628106719" lon="2.4494555399196387"><ele>69.0</ele><time>2026-03-30T16:51:37.999Z</time></trkpt><trkpt lat="48.99493612725222" lon="2.449291678290461"><ele>69.0</ele><time>2026-03-30T16:51:38.999Z</time></trkpt><trkpt lat="48.99491333264986" lon="2.449123369048451"><ele>69.0</ele><time>2026-03-30T16:51:39.999Z</time></trkpt><trkpt lat="48.99488807998431" lon="2.44895179054112"><ele>69.0</ele><time>2026-03-30T16:51:40.999Z</time></trkpt><trkpt lat="48.994860539640584" lon="2.4487843384307424"><ele>69.0</ele><time>2026-03-30T16:51:41.999Z</time></trkpt><trkpt lat="48.994830011665414" lon="2.448612354610396"><ele>69.4</ele><time>2026-03-30T16:51:42.999Z</time></trkpt><trkpt lat="48.99480216986297" lon="2.448443051033292"><ele>69.80000000000001</ele><time>2026-03-30T16:51:43.999Z</time></trkpt><trkpt lat="48.99477734638937" lon="2.448278284995222"><ele>70.19999999999999</ele><time>2026-03-30T16:51:44.999Z</time></trkpt><trkpt lat="48.994754908061715" lon="2.448123347363743"><ele>70.6</ele><time>2026-03-30T16:51:45.999Z</time></trkpt><trkpt lat="48.99473083607455" lon="2.4479662401989186"><ele>71.0</ele><time>2026-03-30T16:51:46.999Z</time></trkpt><trkpt lat="48.99470854051462" lon="2.4478139497604974"><ele>71.25</ele><time>2026-03-30T16:51:47.999Z</time></trkpt><trkpt lat="48.994685690743346" lon="2.4476566362291345"><ele>71.5</ele><time>2026-03-30T16:51:48.999Z</time></trkpt><trkpt lat="48.994659497985815" lon="2.447486978072574"><ele>71.75</ele><time>2026-03-30T16:51:49.999Z</time></trkpt><trkpt lat="48.99463360257667" lon="2.447315224181496"><ele>72.0</ele><time>2026-03-30T16:51:50.999Z</time></trkpt><trkpt lat="48.99460491750389" lon="2.447136314071035"><ele>72.25</ele><time>2026-03-30T16:51:51.999Z</time></trkpt><trkpt lat="48.994574092293774" lon="2.4469502660866875"><ele>72.5</ele><time>2026-03-30T16:51:52.999Z</time></trkpt><trkpt lat="48.994542180602636" lon="2.4467616736793296"><ele>72.75</ele><time>2026-03-30T16:51:53.999Z</time></trkpt><trkpt lat="48.994515087063625" lon="2.446569093174645"><ele>73.0</ele><time>2026-03-30T16:51:54.999Z</time></trkpt><trkpt lat="48.99448850476153" lon="2.446378586847963"><ele>73.25</ele><time>2026-03-30T16:51:55.999Z</time></trkpt><trkpt lat="48.99445839915248" lon="2.446191269080726"><ele>73.5</ele><time>2026-03-30T16:51:56.999Z</time></trkpt><trkpt lat="48.99443002231212" lon="2.446003183498843"><ele>73.75</ele><time>2026-03-30T16:51:57.999Z</time></trkpt><trkpt lat="48.99439966687924" lon="2.445818687138114"><ele>74.0</ele><time>2026-03-30T16:51:58.999Z</time></trkpt><trkpt lat="48.99437153995799" lon="2.4456400613080733"><ele>74.0</ele><time>2026-03-30T16:51:59.999Z</time></trkpt><trkpt lat="48.99434829162366" lon="2.445463558276364"><ele>74.0</ele><time>2026-03-30T16:52:00.999Z</time></trkpt><trkpt lat="48.99432233127892" lon="2.445287168218199"><ele>74.0</ele><time>2026-03-30T16:52:01.999Z</time></trkpt><trkpt lat="48.99429076392401" lon="2.4451113033620135"><ele>74.0</ele><time>2026-03-30T16:52:02.999Z</time></trkpt><trkpt lat="48.99425429295324" lon="2.444939850390398"><ele>73.75</ele><time>2026-03-30T16:52:03.999Z</time></trkpt><trkpt lat="48.994217623229225" lon="2.4447673425260374"><ele>73.5</ele><time>2026-03-30T16:52:04.999Z</time></trkpt><trkpt lat="48.99418166724157" lon="2.4445976999707364"><ele>73.25</ele><time>2026-03-30T16:52:05.999Z</time></trkpt><trkpt lat="48.994133646585524" lon="2.4444321058259586"><ele>73.0</ele><time>2026-03-30T16:52:06.999Z</time></trkpt><trkpt lat="48.9940749767373" lon="2.4442732610091955"><ele>72.75</ele><time>2026-03-30T16:52:07.999Z</time></trkpt><trkpt lat="48.99401596990474" lon="2.4441147347470094"><ele>72.5</ele><time>2026-03-30T16:52:08.999Z</time></trkpt><trkpt lat="48.993957577285634" lon="2.4439593861671542"><ele>72.25</ele><time>2026-03-30T16:52:09.999Z</time></trkpt><trkpt lat="48.99389532961635" lon="2.4438105229641005"><ele>72.0</ele><time>2026-03-30T16:52:10.999Z</time></trkpt><trkpt lat="48.99383007598093" lon="2.4436739160286014"><ele>72.0</ele><time>2026-03-30T16:52:11.999Z</time></trkpt><trkpt lat="48.99375961215141" lon="2.443551074580073"><ele>72.0</ele><time>2026-03-30T16:52:12.999Z</time></trkpt><trkpt lat="48.99369089036449" lon="2.4434323279714008"><ele>72.0</ele><time>2026-03-30T16:52:13.999Z</time></trkpt><trkpt lat="48.99363072846697" lon="2.4433157185372627"><ele>72.0</ele><time>2026-03-30T16:52:14.998Z</time></trkpt><trkpt lat="48.99356916122882" lon="2.4432029317450303"><ele>72.0</ele><time>2026-03-30T16:52:15.998Z</time></trkpt><trkpt lat="48.99350754343767" lon="2.443102076744801"><ele>72.0</ele><time>2026-03-30T16:52:16.998Z</time></trkpt><trkpt lat="48.99345145196053" lon="2.4430076113526953"><ele>72.0</ele><time>2026-03-30T16:52:17.998Z</time></trkpt><trkpt lat="48.99340111768344" lon="2.4429214471140663"><ele>72.0</ele><time>2026-03-30T16:52:18.998Z</time></trkpt><trkpt lat="48.9933510391005" lon="2.442829846646018"><ele>72.0</ele><time>2026-03-30T16:52:19.998Z</time></trkpt><trkpt lat="48.993302748627926" lon="2.442720126654169"><ele>72.0</ele><time>2026-03-30T16:52:20.998Z</time></trkpt><trkpt lat="48.99326072256079" lon="2.442610159675525"><ele>72.0</ele><time>2026-03-30T16:52:21.998Z</time></trkpt><trkpt lat="48.99319218594766" lon="2.442517809138151"><ele>72.2</ele><time>2026-03-30T16:52:22.998Z</time></trkpt><trkpt lat="48.99310957946776" lon="2.4424544238695716"><ele>72.4</ele><time>2026-03-30T16:52:23.998Z</time></trkpt><trkpt lat="48.99302187863332" lon="2.442404188805669"><ele>72.6</ele><time>2026-03-30T16:52:24.998Z</time></trkpt><trkpt lat="48.992943065564184" lon="2.4423220438008038"><ele>72.8</ele><time>2026-03-30T16:52:25.998Z</time></trkpt><trkpt lat="48.99287009281949" lon="2.442216782265615"><ele>73.0</ele><time>2026-03-30T16:52:26.998Z</time></trkpt><trkpt lat="48.992799010873135" lon="2.442118816877697"><ele>72.2</ele><time>2026-03-30T16:52:27.998Z</time></trkpt><trkpt lat="48.99271749917345" lon="2.442022798816592"><ele>71.4</ele><time>2026-03-30T16:52:28.998Z</time></trkpt><trkpt lat="48.992640869915974" lon="2.4419265861359634"><ele>70.60000000000001</ele><time>2026-03-30T16:52:29.998Z</time></trkpt><trkpt lat="48.99256746977618" lon="2.4418331591687523"><ele>69.8</ele><time>2026-03-30T16:52:30.998Z</time></trkpt><trkpt lat="48.992495327228305" lon="2.441735156742623"><ele>69.0</ele><time>2026-03-30T16:52:31.998Z</time></trkpt><trkpt lat="48.99243531534431" lon="2.441613741535861"><ele>69.0</ele><time>2026-03-30T16:52:32.998Z</time></trkpt><trkpt lat="48.99235825804685" lon="2.4415254440062846"><ele>69.0</ele><time>2026-03-30T16:52:33.998Z</time></trkpt><trkpt lat="48.9922955945733" lon="2.4414055789381135"><ele>69.0</ele><time>2026-03-30T16:52:34.998Z</time></trkpt><trkpt lat="48.9922402351997" lon="2.441282668390247"><ele>69.0</ele><time>2026-03-30T16:52:35.998Z</time></trkpt><trkpt lat="48.99218971761203" lon="2.441148182702203"><ele>69.0</ele><time>2026-03-30T16:52:36.998Z</time></trkpt><trkpt lat="48.992149736682165" lon="2.4410067791775836"><ele>68.8</ele><time>2026-03-30T16:52:37.998Z</time></trkpt><trkpt lat="48.992114202698524" lon="2.4408623231285995"><ele>68.60000000000001</ele><time>2026-03-30T16:52:38.998Z</time></trkpt><trkpt lat="48.99208644083949" lon="2.440711038188388"><ele>68.4</ele><time>2026-03-30T16:52:39.998Z</time></trkpt><trkpt lat="48.992069483882574" lon="2.440560903846836"><ele>68.2</ele><time>2026-03-30T16:52:40.998Z</time></trkpt><trkpt lat="48.99206164802238" lon="2.440406106250276"><ele>68.0</ele><time>2026-03-30T16:52:41.998Z</time></trkpt><trkpt lat="48.992058649398395" lon="2.4402689870696883"><ele>67.5</ele><time>2026-03-30T16:52:42.998Z</time></trkpt><trkpt lat="48.99205586015262" lon="2.4401460761973177"><ele>67.0</ele><time>2026-03-30T16:52:43.998Z</time></trkpt><trkpt lat="48.992058727291884" lon="2.440025785373269"><ele>66.5</ele><time>2026-03-30T16:52:44.998Z</time></trkpt><trkpt lat="48.99205641805807" lon="2.439908813354114"><ele>66.0</ele><time>2026-03-30T16:52:46Z</time></trkpt><trkpt lat="48.99204521883071" lon="2.4397993461298753"><ele>65.5</ele><time>2026-03-30T16:52:47Z</time></trkpt><trkpt lat="48.992029508923046" lon="2.4396873894611772"><ele>65.0</ele><time>2026-03-30T16:52:48Z</time></trkpt><trkpt lat="48.99201142685083" lon="2.4395821290835773"><ele>64.57142857142858</ele><time>2026-03-30T16:52:49Z</time></trkpt><trkpt lat="48.99199557497182" lon="2.4394822596625567"><ele>64.14285714285714</ele><time>2026-03-30T16:52:50Z</time></trkpt><trkpt lat="48.991973764224824" lon="2.439376415570022"><ele>63.71428571428572</ele><time>2026-03-30T16:52:51Z</time></trkpt><trkpt lat="48.99194469654727" lon="2.439275723142931"><ele>63.28571428571429</ele><time>2026-03-30T16:52:52Z</time></trkpt><trkpt lat="48.99191367814437" lon="2.4391792555042637"><ele>62.85714285714286</ele><time>2026-03-30T16:52:53Z</time></trkpt><trkpt lat="48.99187386305272" lon="2.4390801473803854"><ele>62.42857142857143</ele><time>2026-03-30T16:52:54Z</time></trkpt><trkpt lat="48.991836079167676" lon="2.4389905995394585"><ele>62.0</ele><time>2026-03-30T16:52:55Z</time></trkpt><trkpt lat="48.99179232360974" lon="2.438907743199813"><ele>62.00000000000001</ele><time>2026-03-30T16:52:56Z</time></trkpt><trkpt lat="48.991747598003805" lon="2.438829538862641"><ele>62.0</ele><time>2026-03-30T16:52:57Z</time></trkpt><trkpt lat="48.99169697459313" lon="2.4387418971963752"><ele>62.0</ele><time>2026-03-30T16:52:58Z</time></trkpt><trkpt lat="48.991641362210835" lon="2.4386654653246103"><ele>62.0</ele><time>2026-03-30T16:52:59Z</time></trkpt><trkpt lat="48.991582815903556" lon="2.4385896781219882"><ele>62.00000000000001</ele><time>2026-03-30T16:53:00Z</time></trkpt><trkpt lat="48.991517293591286" lon="2.438523801484841"><ele>62.0</ele><time>2026-03-30T16:53:01Z</time></trkpt><trkpt lat="48.99144968325192" lon="2.4384605073835726"><ele>61.57142857142858</ele><time>2026-03-30T16:53:02Z</time></trkpt><trkpt lat="48.991386909741536" lon="2.4383947917339013"><ele>61.14285714285715</ele><time>2026-03-30T16:53:03Z</time></trkpt><trkpt lat="48.991326831476464" lon="2.4383296412957347"><ele>60.714285714285715</ele><time>2026-03-30T16:53:04Z</time></trkpt><trkpt lat="48.991269616217004" lon="2.4382583602973904"><ele>60.28571428571429</ele><time>2026-03-30T16:53:05Z</time></trkpt><trkpt lat="48.99121321237453" lon="2.438192499925762"><ele>59.85714285714286</ele><time>2026-03-30T16:53:06Z</time></trkpt><trkpt lat="48.991157179776614" lon="2.4381242392229483"><ele>59.42857142857143</ele><time>2026-03-30T16:53:07Z</time></trkpt><trkpt lat="48.99109671277685" lon="2.438051083192224"><ele>59.0</ele><time>2026-03-30T16:53:08Z</time></trkpt><trkpt lat="48.99103215629493" lon="2.437971688289053"><ele>58.857142857142854</ele><time>2026-03-30T16:53:09Z</time></trkpt><trkpt lat="48.990974831579116" lon="2.4378984388272045"><ele>58.71428571428572</ele><time>2026-03-30T16:53:10Z</time></trkpt><trkpt lat="48.990924884986065" lon="2.4378165751208316"><ele>58.57142857142858</ele><time>2026-03-30T16:53:11Z</time></trkpt><trkpt lat="48.99087928049958" lon="2.4377324680637145"><ele>58.42857142857143</ele><time>2026-03-30T16:53:12Z</time></trkpt><trkpt lat="48.990833408700674" lon="2.437655512982528"><ele>58.28571428571429</ele><time>2026-03-30T16:53:13Z</time></trkpt><trkpt lat="48.990791044725896" lon="2.437577509620134"><ele>58.14285714285715</ele><time>2026-03-30T16:53:14Z</time></trkpt><trkpt lat="48.99074664244045" lon="2.4374888503187324"><ele>58.00000000000001</ele><time>2026-03-30T16:53:15Z</time></trkpt><trkpt lat="48.990702668953794" lon="2.437409016915013"><ele>58.00000000000001</ele><time>2026-03-30T16:53:16Z</time></trkpt><trkpt lat="48.990662457843214" lon="2.437320613199537"><ele>58.0</ele><time>2026-03-30T16:53:17Z</time></trkpt><trkpt lat="48.99064680977153" lon="2.437207139011738"><ele>58.00000000000001</ele><time>2026-03-30T16:53:18Z</time></trkpt><trkpt lat="48.99059663129035" lon="2.437125530193171"><ele>58.00000000000001</ele><time>2026-03-30T16:53:19Z</time></trkpt><trkpt lat="48.99056599586637" lon="2.437030956188587"><ele>58.0</ele><time>2026-03-30T16:53:20Z</time></trkpt><trkpt lat="48.99054927186419" lon="2.436928487656836"><ele>58.00000000000001</ele><time>2026-03-30T16:53:21Z</time></trkpt><trkpt lat="48.99051996175987" lon="2.436829304082823"><ele>58.00000000000001</ele><time>2026-03-30T16:53:22Z</time></trkpt><trkpt lat="48.99049291451803" lon="2.436727460639065"><ele>58.4</ele><time>2026-03-30T16:53:23Z</time></trkpt><trkpt lat="48.990445910886436" lon="2.4365621206967734"><ele>58.8</ele><time>2026-03-30T16:53:25Z</time></trkpt><trkpt lat="48.99041503651426" lon="2.436415169207428"><ele>59.2</ele><time>2026-03-30T16:53:26.999Z</time></trkpt><trkpt lat="48.99039719992596" lon="2.4363144746790546"><ele>59.6</ele><time>2026-03-30T16:53:27.999Z</time></trkpt><trkpt lat="48.99038155987945" lon="2.436220834871016"><ele>60.0</ele><time>2026-03-30T16:53:28.999Z</time></trkpt><trkpt lat="48.99037808144866" lon="2.4360501581989094"><ele>60.6</ele><time>2026-03-30T16:53:30.999Z</time></trkpt><trkpt lat="48.99036875567871" lon="2.4359139161254317"><ele>61.2</ele><time>2026-03-30T16:53:32.999Z</time></trkpt><trkpt lat="48.990373284745424" lon="2.435815538706002"><ele>61.8</ele><time>2026-03-30T16:53:33.999Z</time></trkpt><trkpt lat="48.99038675468284" lon="2.435642998730909"><ele>62.4</ele><time>2026-03-30T16:53:35.999Z</time></trkpt><trkpt lat="48.99041056730774" lon="2.435474918082771"><ele>63.0</ele><time>2026-03-30T16:53:37.999Z</time></trkpt><trkpt lat="48.99043777356355" lon="2.4353257394745436"><ele>63.8</ele><time>2026-03-30T16:53:39.999Z</time></trkpt><trkpt lat="48.99047509354022" lon="2.4351520835505926"><ele>64.6</ele><time>2026-03-30T16:53:41.999Z</time></trkpt><trkpt lat="48.99049940167159" lon="2.4350618421183685"><ele>65.4</ele><time>2026-03-30T16:53:42.999Z</time></trkpt><trkpt lat="48.99053062994929" lon="2.434977176905734"><ele>66.2</ele><time>2026-03-30T16:53:43.999Z</time></trkpt><trkpt lat="48.990597364987394" lon="2.434813742085903"><ele>67.0</ele><time>2026-03-30T16:53:45.999Z</time></trkpt><trkpt lat="48.99063939646653" lon="2.4347013961561466"><ele>67.0</ele><time>2026-03-30T16:53:46.999Z</time></trkpt><trkpt lat="48.990703545957246" lon="2.4346052751414327"><ele>67.0</ele><time>2026-03-30T16:53:47.999Z</time></trkpt><trkpt lat="48.990764007254896" lon="2.434448038958257"><ele>67.0</ele><time>2026-03-30T16:53:48.999Z</time></trkpt><trkpt lat="48.99087080333851" lon="2.4343155245520043"><ele>67.0</ele><time>2026-03-30T16:53:49.999Z</time></trkpt><trkpt lat="48.99097138033219" lon="2.4341844746412815"><ele>67.0</ele><time>2026-03-30T16:53:50.999Z</time></trkpt><trkpt lat="48.99106102208383" lon="2.434040177018791"><ele>67.0</ele><time>2026-03-30T16:53:51.999Z</time></trkpt><trkpt lat="48.99114555043105" lon="2.433889897990121"><ele>67.0</ele><time>2026-03-30T16:53:52.999Z</time></trkpt><trkpt lat="48.99123606508192" lon="2.433741731280511"><ele>67.0</ele><time>2026-03-30T16:53:53.999Z</time></trkpt><trkpt lat="48.99132538356905" lon="2.433587682593024"><ele>67.2</ele><time>2026-03-30T16:53:54.999Z</time></trkpt><trkpt lat="48.991409373672504" lon="2.4334518229466555"><ele>67.4</ele><time>2026-03-30T16:53:55.999Z</time></trkpt><trkpt lat="48.9914826501643" lon="2.4333249456695243"><ele>67.6</ele><time>2026-03-30T16:53:56.999Z</time></trkpt><trkpt lat="48.99153434084552" lon="2.433227380802534"><ele>67.8</ele><time>2026-03-30T16:53:57.999Z</time></trkpt><trkpt lat="48.99160061827227" lon="2.4331478149895767"><ele>68.0</ele><time>2026-03-30T16:53:59.999Z</time></trkpt><trkpt lat="48.99150296061619" lon="2.4329834742375693"><ele>68.16666666666667</ele><time>2026-03-30T16:54:01.999Z</time></trkpt><trkpt lat="48.99142178798787" lon="2.4328658082145735"><ele>68.33333333333334</ele><time>2026-03-30T16:54:03.999Z</time></trkpt><trkpt lat="48.99139863893925" lon="2.4327746517422395"><ele>68.5</ele><time>2026-03-30T16:54:04.999Z</time></trkpt><trkpt lat="48.99133365240233" lon="2.4327191316652366"><ele>68.66666666666667</ele><time>2026-03-30T16:54:05.999Z</time></trkpt><trkpt lat="48.99127705528459" lon="2.4326424067198045"><ele>68.83333333333333</ele><time>2026-03-30T16:54:06.999Z</time></trkpt><trkpt lat="48.991218362385226" lon="2.4326031839176028"><ele>69.0</ele><time>2026-03-30T16:54:07.999Z</time></trkpt><trkpt lat="48.99111741181781" lon="2.4326353768509863"><ele>69.0</ele><time>2026-03-30T16:54:09.999Z</time></trkpt><trkpt lat="48.99112745409163" lon="2.4325330908922287"><ele>69.0</ele><time>2026-03-30T16:54:10.999Z</time></trkpt></trkseg></trk></gpx>